Flight Track Log - Related Links

Times and Time Zones

All times are in EDT time to prevent confusion due to time zone crossing. See the CSN450 flight status page for this flight to view local times or setup timezone preferences in your user account.

Time Position Orientation Groundspeed Altitude Reporting Facility
EDT Latitude Longitude Course Direction KTS MPH feet Rate Location/Type
Sat 11:44:59 AM 47.8000 -121.8667 329° Northwest 290 334 8,400  Level Vancouver Center
Sat 11:46:00 AM 47.8919 -122.0341 309° West  Level Estimated
Sat 11:53:00 AM 48.5180 -123.2031 309° West  Level Estimated
Sat 11:54:00 AM 48.6064 -123.3725 308° West  Level Estimated
Sat 11:55:00 AM 48.6946 -123.5424 308° West  Level Estimated
Sat 11:56:00 AM 48.7826 -123.7130 308° West  Level Estimated
Sat 11:57:00 AM 48.8703 -123.8841 308° West  Level Estimated
Sat 11:58:00 AM 48.9577 -124.0559 308° West  Level Estimated
Sat 11:59:00 AM 49.0449 -124.2282 308° West  Level Estimated
Sat 12:00:00 PM 49.1319 -124.4012 308° West  Level Estimated
Sat 12:01:00 PM 49.2186 -124.5747 307° West  Level Estimated
Sat 12:02:00 PM 49.3050 -124.7489 307° West  Level Estimated
Sat 12:03:00 PM 49.3912 -124.9237 307° West  Level Estimated
Sat 12:04:00 PM 49.4770 -125.0991 307° West  Level Estimated
Sat 12:05:00 PM 49.5627 -125.2750 307° West  Level Estimated
Sat 12:06:00 PM 49.6480 -125.4517 307° West  Level Estimated
Sat 12:07:00 PM 49.7331 -125.6289 307° West  Level Estimated
Sat 12:08:00 PM 49.8052 -125.7801 307° West  Level Estimated
Sat 12:09:00 PM 49.8772 -125.9317 306° West  Level Estimated
Sat 12:10:00 PM 49.9489 -126.0838 306° West  Level Estimated
Sat 12:11:00 PM 50.0205 -126.2364 306° West  Level Estimated
Sat 12:12:00 PM 50.0918 -126.3893 306° West  Level Estimated
Sat 12:13:00 PM 50.1629 -126.5428 306° West  Level Estimated
Sat 12:14:00 PM 50.2338 -126.6967 306° West  Level Estimated
Sat 12:15:00 PM 50.3046 -126.8511 306° West  Level Estimated
Sat 12:16:00 PM 50.3751 -127.0059 306° West  Level Estimated
Sat 12:17:00 PM 50.4454 -127.1612 305° West  Level Estimated
Sat 12:18:00 PM 50.5155 -127.3169 305° West  Level Estimated
Sat 12:19:00 PM 50.5854 -127.4731 314° West  Level Estimated
Sat 12:20:00 PM 50.6874 -127.5770 327° Northwest  Level FlightAware Approximate
Sat 12:21:00 PM 50.7893 -127.6813 327° Northwest  Level FlightAware Approximate
Sat 12:22:00 PM 50.8911 -127.7860 327° Northwest  Level FlightAware Approximate
Sat 12:23:00 PM 50.9928 -127.8912 327° Northwest  Level FlightAware Approximate
Sat 12:24:00 PM 51.0618 -128.0500 315° West  Level Estimated
Sat 12:25:00 PM 51.1489 -128.1846 316° Northwest  Level FlightAware Approximate
Sat 12:26:00 PM 51.2359 -128.3198 316° Northwest  Level FlightAware Approximate
Sat 12:27:00 PM 51.3227 -128.4555 316° Northwest  Level FlightAware Approximate
Sat 12:28:00 PM 51.4093 -128.5917 316° Northwest  Level FlightAware Approximate
Sat 12:29:00 PM 51.4958 -128.7284 315° West  Level FlightAware Approximate
Sat 12:30:00 PM 51.5821 -128.8657 315° West  Level FlightAware Approximate
Sat 12:31:00 PM 51.6683 -129.0034 315° West  Level FlightAware Approximate
Sat 12:32:00 PM 51.7542 -129.1417 315° West  Level FlightAware Approximate
Sat 12:33:00 PM 51.8401 -129.2805 315° West  Level FlightAware Approximate
Sat 12:34:00 PM 51.9258 -129.4199 315° West  Level FlightAware Approximate
Sat 12:35:00 PM 52.0112 -129.5598 315° West  Level FlightAware Approximate
Sat 12:36:00 PM 52.0779 -129.7247 313° West  Level Estimated
Sat 12:37:00 PM 52.1618 -129.8676 314° West  Level FlightAware Approximate
Sat 12:38:00 PM 52.2455 -130.0110 314° West  Level FlightAware Approximate
Sat 12:39:00 PM 52.3291 -130.1550 314° West  Level FlightAware Approximate
Sat 12:40:00 PM 52.4125 -130.2995 313° West  Level FlightAware Approximate
Sat 12:41:00 PM 52.4957 -130.4445 313° West  Level FlightAware Approximate
Sat 12:42:00 PM 52.5788 -130.5901 313° West  Level FlightAware Approximate
Sat 12:43:00 PM 52.6841 -130.7762 313° West  Level FlightAware Approximate
Sat 12:44:00 PM 52.7892 -130.9631 313° West  Level FlightAware Approximate
Sat 12:45:00 PM 52.8941 -131.1510 313° West  Level FlightAware Approximate
Sat 12:46:00 PM 52.9986 -131.3398 313° West  Level FlightAware Approximate
Sat 12:47:00 PM 53.1028 -131.5295 313° West  Level FlightAware Approximate
Sat 12:48:00 PM 53.2067 -131.7201 312° West  Level FlightAware Approximate
Sat 12:49:00 PM 53.2873 -131.9402 313° West  Level Estimated
Sat 12:50:00 PM 53.3941 -132.1271 314° West  Level FlightAware Approximate
Sat 12:51:00 PM 53.5007 -132.3149 314° West  Level FlightAware Approximate
Sat 12:52:00 PM 53.6069 -132.5037 314° West  Level FlightAware Approximate
Sat 12:53:00 PM 53.7128 -132.6934 313° West  Level FlightAware Approximate
Sat 12:54:00 PM 53.8185 -132.8841 313° West  Level FlightAware Approximate
Sat 12:55:00 PM 53.9238 -133.0757 313° West  Level FlightAware Approximate
Sat 12:56:00 PM 54.0288 -133.2683 313° West  Level FlightAware Approximate
Sat 12:57:00 PM 54.1335 -133.4619 313° West  Level FlightAware Approximate
Sat 12:58:00 PM 54.2108 -133.6904 313° West  Level Estimated
Sat 12:59:00 PM 54.3175 -133.8816 314° West  Level FlightAware Approximate
Sat 01:00:00 PM 54.4239 -134.0738 314° West  Level FlightAware Approximate
Sat 01:01:00 PM 54.5301 -134.2669 313° West  Level FlightAware Approximate
Sat 01:02:00 PM 54.6359 -134.4611 313° West  Level FlightAware Approximate
Sat 01:03:00 PM 54.7414 -134.6563 313° West  Level FlightAware Approximate
Sat 01:04:00 PM 54.8466 -134.8525 313° West  Level FlightAware Approximate
Sat 01:05:00 PM 54.9515 -135.0497 313° West  Level FlightAware Approximate
Sat 01:06:00 PM 55.0255 -135.2861 310° West  Level Estimated
Sat 01:07:00 PM 55.1289 -135.4864 312° West  Level FlightAware Approximate
Sat 01:08:00 PM 55.2321 -135.6878 312° West  Level FlightAware Approximate
Sat 01:09:00 PM 55.3349 -135.8902 312° West  Level FlightAware Approximate
Sat 01:10:00 PM 55.4373 -136.0937 312° West  Level FlightAware Approximate
Sat 01:11:00 PM 55.5395 -136.2982 311° West  Level FlightAware Approximate
Sat 01:12:00 PM 55.6413 -136.5038 311° West  Level FlightAware Approximate
Sat 01:13:00 PM 55.7427 -136.7105 311° West  Level FlightAware Approximate
Sat 01:14:00 PM 55.8438 -136.9183 311° West  Level FlightAware Approximate
Sat 01:15:00 PM 55.9139 -137.1637 310° West  Level Estimated
Sat 01:16:00 PM 56.0131 -137.3751 310° West  Level FlightAware Approximate
Sat 01:17:00 PM 56.1121 -137.5876 310° West  Level FlightAware Approximate
Sat 01:18:00 PM 56.2106 -137.8012 310° West  Level FlightAware Approximate
Sat 01:19:00 PM 56.3088 -138.0159 310° West  Level FlightAware Approximate
Sat 01:20:00 PM 56.4066 -138.2317 309° West  Level FlightAware Approximate
Sat 01:21:00 PM 56.5040 -138.4486 309° West  Level FlightAware Approximate
Sat 01:22:00 PM 56.6011 -138.6667 309° West  Level FlightAware Approximate
Sat 01:23:00 PM 56.6965 -138.8829 309° West  Level FlightAware Approximate
Sat 01:24:00 PM 56.7915 -139.1002 309° West  Level FlightAware Approximate
Sat 01:25:00 PM 56.8861 -139.3186 308° West  Level FlightAware Approximate
Sat 01:26:00 PM 56.9804 -139.5382 308° West  Level FlightAware Approximate
Sat 01:27:00 PM 57.0742 -139.7588 308° West  Level FlightAware Approximate
Sat 01:28:00 PM 57.1677 -139.9806 308° West  Level FlightAware Approximate
Sat 01:29:00 PM 57.2608 -140.2034 308° West  Level FlightAware Approximate
Sat 01:30:00 PM 57.3535 -140.4275 308° West  Level FlightAware Approximate
Sat 01:31:00 PM 57.4457 -140.6526 307° West  Level FlightAware Approximate
Sat 01:32:00 PM 57.5376 -140.8789 307° West  Level FlightAware Approximate
Sat 01:33:00 PM 57.6291 -141.1063 307° West  Level FlightAware Approximate
Sat 01:34:00 PM 57.7201 -141.3349 307° West  Level FlightAware Approximate
Sat 01:35:00 PM 57.8108 -141.5646 307° West  Level FlightAware Approximate
Sat 01:36:00 PM 57.8699 -141.8286 305° West  Level Estimated
Sat 01:37:00 PM 57.9578 -142.0629 305° West  Level FlightAware Approximate
Sat 01:38:00 PM 58.0454 -142.2983 305° West  Level FlightAware Approximate
Sat 01:38:38 PM 49.1897 -117.8268 101° East 58 67  Level FlightAware ADS-B (CYVR)
Sat 01:39:00 PM 58.1325 -142.5349 305° West  Level FlightAware Approximate
Sat 01:39:40 PM 49.1667 -123.1333 297° West 230 265 1,100  Level Vancouver Center
Sat 01:40:00 PM 58.2192 -142.7726 305° West  Level FlightAware Approximate
Sat 01:41:00 PM 58.3054 -143.0116 305° West  Level FlightAware Approximate
Sat 01:42:00 PM 58.3912 -143.2516 304° West  Level FlightAware Approximate
Sat 01:43:00 PM 58.4765 -143.4929 304° West  Level FlightAware Approximate
Sat 01:45:00 PM 49.1571 -123.3546 297° West  Level FlightAware Approximate
Sat 01:45:10 PM 48.9858 -129.9110 272° West 328 377 11,700  Level FlightAware ADS-B
Sat 01:45:14 PM 48.9860 -129.8342 272° West 329 379 11,900 2,040 Climbing FlightAware ADS-B
Sat 01:46:00 PM 48.9882 -129.9460 272° West 344 396 13,400 1,884 Climbing FlightAware ADS-B
Sat 01:46:40 PM 48.9901 -130.0420 272° West 358 412 14,600 1,792 Climbing FlightAware ADS-B
Sat 01:47:17 PM 48.9923 -130.1370 272° West 372 428 15,700 1,698 Climbing FlightAware ADS-B
Sat 01:53:37 PM 49.3984 -118.7476 306° West 444 511 26,400 1,585 Climbing FlightAware ADS-B (FAKM / KIM)
Sat 01:54:40 PM 49.4333 -124.6167 306° West 440 506 27,400 732 Climbing Vancouver Center
Sat 01:55:40 PM 49.5167 -124.7833 308° West 450 518 27,900 750 Climbing Vancouver Center
Sat 01:56:40 PM 49.5833 -124.9333 304° West 460 529 28,900 1,050 Climbing Vancouver Center
Sat 01:57:40 PM 49.6667 -125.1167 305° West 470 541 30,000 550 Climbing Vancouver Center
Sat 01:58:40 PM 49.7333 -125.2667 305° West 470 541 30,000  Level Vancouver Center
Sat 01:59:40 PM 49.8167 -125.4333 308° West 470 541 30,000  Level Vancouver Center
Sat 02:00:40 PM 49.9000 -125.5833 311° West 470 541 30,000  Level Vancouver Center
Sat 02:01:40 PM 49.9500 -125.7667 293° West 470 541 30,000  Level Vancouver Center
Sat 02:02:40 PM 50.0333 -125.9333 308° West 470 541 30,000  Level Vancouver Center
Sat 02:03:40 PM 50.1167 -126.0833 311° West 470 541 30,000  Level Vancouver Center
Sat 02:04:40 PM 50.1833 -126.2500 302° West 470 541 30,000  Level Vancouver Center
Sat 02:05:40 PM 50.2667 -126.4333 305° West 470 541 30,000  Level Vancouver Center
Sat 02:06:40 PM 50.3333 -126.6000 302° West 470 541 30,000  Level Vancouver Center
Sat 02:07:40 PM 50.4000 -126.7667 302° West 470 541 30,000  Level Vancouver Center
Sat 02:08:40 PM 50.4833 -126.9167 311° West 470 541 30,000  Level Vancouver Center
Sat 02:09:40 PM 50.5667 -127.1167 303° West 470 541 30,000  Level Vancouver Center
Sat 02:10:40 PM 50.6167 -127.2667 298° West 460 529 30,000  Level Vancouver Center
Sat 02:11:40 PM 50.7000 -127.4333 308° West 470 541 30,000  Level Vancouver Center
Sat 02:12:40 PM 50.8000 -127.5833 317° Northwest 480 552 30,000  Level Vancouver Center
Sat 02:13:40 PM 50.9000 -127.7500 314° West 490 564 30,000  Level Vancouver Center
Sat 02:14:40 PM 50.9833 -127.8833 315° West 480 552 30,000  Level Vancouver Center
Sat 02:15:40 PM 51.0833 -128.0500 314° West 480 552 30,000  Level Vancouver Center
Sat 02:16:40 PM 51.1833 -128.2000 317° Northwest 480 552 30,000  Level Vancouver Center
Sat 02:17:40 PM 51.2667 -128.3667 309° West 490 564 30,000  Level Vancouver Center
Sat 02:18:40 PM 51.3667 -128.5000 320° Northwest 490 564 30,000  Level Vancouver Center
Sat 02:19:40 PM 51.4667 -128.6833 311° West 500 575 30,000  Level Vancouver Center
Sat 02:20:40 PM 51.5500 -128.8500 309° West 500 575 30,000  Level Vancouver Center
Sat 02:21:40 PM 51.6500 -129.0000 317° Northwest 510 587 30,000  Level Vancouver Center
Sat 02:22:40 PM 51.7500 -129.1667 314° West 510 587 30,000  Level Vancouver Center
Sat 02:23:40 PM 51.8500 -129.3500 311° West 510 587 30,000  Level Vancouver Center
Sat 02:24:40 PM 51.9500 -129.5167 314° West 510 587 30,000  Level Vancouver Center
Sat 02:25:40 PM 52.0500 -129.6667 317° Northwest 510 587 30,000  Level Vancouver Center
Sat 02:26:40 PM 52.1333 -129.8333 309° West 510 587 30,000  Level Vancouver Center
Sat 02:27:40 PM 52.2333 -130.0167 312° West 510 587 30,000  Level Vancouver Center
Sat 02:28:40 PM 52.3333 -130.1667 318° Northwest 510 587 30,000  Level Vancouver Center
Sat 02:29:40 PM 52.4333 -130.3500 312° West 500 575 30,000  Level Vancouver Center
Sat 02:30:40 PM 52.5167 -130.5000 312° West 500 575 30,000  Level Vancouver Center
Sat 02:31:40 PM 52.6167 -130.6833 312° West 500 575 30,000  Level Vancouver Center
Sat 02:32:40 PM 52.7000 -130.8500 310° West 500 575 30,000  Level Vancouver Center
Sat 02:33:40 PM 52.8167 -131.0333 317° Northwest 500 575 30,000  Level Vancouver Center
Sat 02:34:40 PM 52.9000 -131.2000 310° West 500 575 30,000  Level Vancouver Center
Sat 02:35:40 PM 53.0000 -131.3500 318° Northwest 500 575 30,000  Level Vancouver Center
Sat 02:36:40 PM 53.0833 -131.5333 307° West 500 575 30,000  Level Vancouver Center
Sat 02:37:40 PM 53.1667 -131.7167 307° West 500 575 30,000  Level Vancouver Center
Sat 02:38:40 PM 53.2667 -131.9000 312° West 510 587 30,000  Level Vancouver Center
Sat 02:39:40 PM 53.3667 -132.0667 315° West 510 587 30,000  Level Vancouver Center
Sat 02:40:40 PM 53.4500 -132.2500 307° West 500 575 30,000  Level Vancouver Center
Sat 02:41:40 PM 53.5667 -132.4167 320° Northwest 500 575 30,000  Level Vancouver Center
Sat 02:42:40 PM 53.6500 -132.6000 308° West 500 575 30,000  Level Vancouver Center
Sat 02:43:40 PM 53.7333 -132.7500 313° West 500 575 30,000  Level Vancouver Center
Sat 02:44:40 PM 53.8167 -132.9500 305° West 510 587 30,000  Level Vancouver Center
Sat 02:45:40 PM 53.9167 -133.1000 319° Northwest 510 587 30,000  Level Vancouver Center
Sat 02:46:40 PM 54.0167 -133.3000 310° West 510 587 30,000  Level Vancouver Center
Sat 02:47:40 PM 54.1000 -133.4667 310° West 510 587 30,000  Level Vancouver Center
Sat 02:48:40 PM 54.2000 -133.6667 311° West 510 587 30,000  Level Vancouver Center
Sat 02:49:40 PM 54.2833 -133.8500 308° West 510 587 30,000  Level Vancouver Center
Sat 02:50:45 PM 54.4000 -133.9833 326° Northwest 510 587 30,000  Level Anchorage Center
Sat 02:51:45 PM 54.5000 -134.1667 313° West 520 598 30,000  Level Anchorage Center
Sat 02:52:40 PM 54.5833 -134.3833 304° West 520 598 30,000  Level Vancouver Center
Sat 02:53:40 PM 54.6833 -134.5833 311° West 520 598 30,000  Level Vancouver Center
Sat 02:54:40 PM 54.7667 -134.7500 311° West 520 598 30,000  Level Vancouver Center
Sat 02:55:40 PM 54.8667 -134.9500 311° West 520 598 30,000  Level Vancouver Center
Sat 02:56:40 PM 54.9667 -135.1333 314° West 520 598 30,000  Level Vancouver Center
Sat 02:57:40 PM 55.0667 -135.3333 311° West 520 598 30,000  Level Vancouver Center
Sat 02:58:40 PM 55.1333 -135.5000 305° West 510 587 30,000  Level Vancouver Center
Sat 02:59:40 PM 55.2333 -135.7000 311° West 510 587 30,000  Level Vancouver Center
Sat 03:00:45 PM 55.3500 -135.8333 327° Northwest 510 587 30,000  Level Anchorage Center
Sat 03:01:46 PM 55.4333 -136.0167 309° West 510 587 30,000  Level Anchorage Center
Sat 03:02:46 PM 55.5167 -136.2000 309° West 520 598 30,000  Level Anchorage Center
Sat 03:03:46 PM 55.6167 -136.4000 312° West 530 610 30,000  Level Anchorage Center
Sat 03:04:40 PM 55.7000 -136.6500 301° West 520 598 30,000  Level Vancouver Center
Sat 03:05:40 PM 55.8000 -136.8667 309° West 520 598 30,000  Level Vancouver Center
Sat 03:06:40 PM 55.8833 -137.0833 305° West 520 598 30,000  Level Vancouver Center
Sat 03:07:40 PM 55.9667 -137.2500 312° West 520 598 30,000  Level Vancouver Center
Sat 03:08:40 PM 56.0667 -137.4667 310° West 520 598 30,000  Level Vancouver Center
Sat 03:09:40 PM 56.1667 -137.6500 314° West 530 610 30,000  Level Vancouver Center
Sat 03:10:47 PM 56.2500 -137.8000 315° West 520 598 30,000  Level Anchorage Center
Sat 03:11:40 PM 56.3333 -138.0833 298° West 520 598 30,000  Level Vancouver Center
Sat 03:12:40 PM 56.4333 -138.2667 315° West 520 598 30,000  Level Vancouver Center
Sat 03:13:47 PM 56.5167 -138.4000 319° Northwest 510 587 30,000  Level Anchorage Center
Sat 03:14:40 PM 56.6000 -138.6833 298° West 520 598 30,000  Level Vancouver Center
Sat 03:15:47 PM 56.7000 -138.8167 324° Northwest 520 598 30,000  Level Anchorage Center
Sat 03:16:47 PM 56.7833 -139.0167 307° West 510 587 30,000  Level Anchorage Center
Sat 03:17:40 PM 56.8500 -139.2667 296° West 510 587 30,000  Level Vancouver Center
Sat 03:18:40 PM 56.9500 -139.4667 313° West 510 587 30,000  Level Vancouver Center
Sat 03:19:40 PM 57.0333 -139.6833 305° West 510 587 30,000  Level Vancouver Center
Sat 03:20:40 PM 57.1000 -139.8667 304° West 510 587 30,000  Level Vancouver Center
Sat 03:21:40 PM 57.2000 -140.1000 308° West 510 587 30,000  Level Vancouver Center
Sat 03:22:40 PM 57.2667 -140.2833 304° West 510 587 30,000  Level Vancouver Center
Sat 03:23:48 PM 57.3833 -140.4500 322° Northwest 490 564 30,000  Level Anchorage Center
Sat 03:24:48 PM 57.4667 -140.6500 308° West 480 552 30,000  Level Anchorage Center
Sat 03:25:48 PM 57.5500 -140.8500 308° West 490 564 30,000  Level Anchorage Center
Sat 03:26:48 PM 57.6167 -141.0667 300° West 460 529 30,000  Level Anchorage Center
Sat 03:27:49 PM 57.7000 -141.2833 306° West 500 575 30,000  Level Anchorage Center
Sat 03:28:49 PM 57.7833 -141.5000 306° West 500 575 30,000  Level Anchorage Center
Sat 03:29:49 PM 57.8667 -141.7000 308° West 490 564 30,000  Level Anchorage Center
Sat 03:30:49 PM 57.9500 -141.9167 306° West 490 564 30,000  Level Anchorage Center
Sat 03:31:49 PM 58.0167 -142.1333 300° West 480 552 30,000  Level Anchorage Center
Sat 03:32:49 PM 58.1000 -142.3500 306° West 500 575 30,000  Level Anchorage Center
Sat 03:33:49 PM 58.1833 -142.5667 306° West 500 575 30,000  Level Anchorage Center
Sat 03:34:49 PM 58.2500 -142.7833 300° West 500 575 30,000  Level Anchorage Center
Sat 03:35:50 PM 58.3333 -143.0000 306° West 490 564 30,000  Level Anchorage Center
Sat 03:36:49 PM 58.4000 -143.2333 299° West 490 564 30,000  Level Anchorage Center
Sat 03:37:50 PM 58.4833 -143.4500 306° West 490 564 30,000  Level Anchorage Center
Sat 03:38:50 PM 58.5500 -143.6667 301° West 490 564 30,000  Level Anchorage Center
Sat 03:39:50 PM 58.6333 -143.8833 307° West 490 564 30,000  Level Anchorage Center
Sat 03:40:50 PM 58.7000 -144.1167 299° West 500 575 30,000  Level Anchorage Center
Sat 03:41:50 PM 58.7833 -144.3333 307° West 490 564 30,000  Level Anchorage Center
Sat 03:42:50 PM 58.8500 -144.5667 299° West 500 575 30,000  Level Anchorage Center
Sat 03:43:50 PM 58.9333 -144.8000 305° West 500 575 30,000  Level Anchorage Center
Sat 03:44:50 PM 59.0000 -145.0167 301° West 490 564 30,000  Level Anchorage Center
Sat 03:45:50 PM 59.0833 -145.2500 305° West 490 564 30,000  Level Anchorage Center
Sat 03:46:50 PM 59.1500 -145.4833 299° West 490 564 30,000  Level Anchorage Center
Sat 03:47:51 PM 59.2167 -145.7167 299° West 490 564 30,000  Level Anchorage Center
Sat 03:48:51 PM 59.2833 -145.9333 301° West 490 564 30,000  Level Anchorage Center
Sat 03:53:07 PM 59.6760 -151.6252 316° Northwest 485 558 30,000  Level FlightAware ADS-B
Sat 03:54:23 PM 59.7950 -151.8583 315° West 481 554 30,000  Level FlightAware ADS-B
Sat 03:55:51 PM 59.9167 -147.3333 284° West 470 541 30,000  Level Anchorage Center
Sat 03:56:51 PM 60.0167 -147.5167 318° Northwest 470 541 30,000  Level Anchorage Center
Sat 03:57:52 PM 60.1167 -147.7167 315° West 470 541 30,000  Level Anchorage Center
Sat 03:58:52 PM 60.2000 -147.9000 312° West 470 541 30,000  Level Anchorage Center
Sat 03:59:52 PM 60.3000 -148.1000 315° West 470 541 30,000  Level Anchorage Center
Sat 04:00:52 PM 60.3833 -148.2833 313° West 470 541 30,000  Level Anchorage Center
Sat 04:01:52 PM 60.4833 -148.4833 315° West 480 552 30,000  Level Anchorage Center
Sat 04:02:00 PM 60.0215 -153.7882 284° West  Level Estimated
Sat 04:02:52 PM 60.5667 -148.6667 313° West 480 552 30,000  Level Anchorage Center
Sat 04:03:53 PM 60.6667 -148.8667 316° Northwest 480 552 30,000  Level Anchorage Center
Sat 04:04:52 PM 60.7667 -149.0667 316° Northwest 480 552 30,000  Level Anchorage Center
Sat 04:05:53 PM 60.8500 -149.2667 311° West 480 552 30,000  Level Anchorage Center
Sat 04:10:24 PM 61.2623 -157.7714 306° West 488 562 30,000  Level FlightAware ADS-B
Sat 04:11:54 PM 61.3828 -158.1167 306° West 489 563 30,000  Level FlightAware ADS-B
Sat 04:14:10 PM 61.5600 -158.6339 305° West 490 564 30,000  Level FlightAware ADS-B
Sat 04:15:24 PM 61.6582 -158.7367 305° West 488 562 30,000  Level FlightAware ADS-B
Sat 04:18:10 PM 61.8692 -159.3760 305° West 485 558 30,000  Level FlightAware ADS-B
Sat 04:18:54 PM 61.9167 -152.1667 305° West 480 552 30,000  Level Anchorage Center
Sat 04:19:54 PM 61.9833 -152.4167 300° West 480 552 30,000  Level Anchorage Center
Sat 04:20:54 PM 62.0667 -152.6500 307° West 480 552 30,000  Level Anchorage Center
Sat 04:21:54 PM 62.1333 -152.8667 303° West 470 541 30,000  Level Anchorage Center
Sat 04:22:54 PM 62.2167 -153.1167 306° West 470 541 30,000  Level Anchorage Center
Sat 04:23:54 PM 62.2833 -153.3333 304° West 460 529 30,000  Level Anchorage Center
Sat 04:24:55 PM 62.3333 -153.6000 292° West 460 529 30,000  Level Anchorage Center
Sat 04:25:55 PM 62.3833 -153.8500 293° West 460 529 30,000  Level Anchorage Center
Sat 04:26:55 PM 62.4333 -154.1000 293° West 460 529 30,000  Level Anchorage Center
Sat 04:27:55 PM 62.4833 -154.3500 294° West 450 518 30,000  Level Anchorage Center
Sat 04:28:55 PM 62.5167 -154.6167 285° West 440 506 30,000  Level Anchorage Center
Sat 04:29:55 PM 62.5667 -154.8667 294° West 450 518 30,000  Level Anchorage Center
Sat 04:30:55 PM 62.6167 -155.1167 294° West 450 518 30,000  Level Anchorage Center
Sat 04:31:55 PM 62.6667 -155.3833 292° West 450 518 30,000  Level Anchorage Center
Sat 04:32:55 PM 62.7000 -155.6333 286° West 440 506 30,000  Level Anchorage Center
Sat 04:33:56 PM 62.7500 -155.8833 294° West 440 506 30,000  Level Anchorage Center
Sat 04:34:55 PM 62.7833 -156.1333 286° West 450 518 30,000  Level Anchorage Center
Sat 04:35:56 PM 62.8333 -156.4000 292° West 450 518 30,000  Level Anchorage Center
Sat 04:36:56 PM 62.8833 -156.6500 294° West 440 506 30,000  Level Anchorage Center
Sat 04:37:56 PM 62.9167 -156.9167 285° West 440 506 30,000  Level Anchorage Center
Sat 04:38:56 PM 62.9500 -157.1667 286° West 440 506 30,000  Level Anchorage Center
Sat 04:39:56 PM 63.0000 -157.3833 297° West 440 506 30,000  Level Anchorage Center
Sat 04:40:56 PM 63.0333 -157.6833 284° West 440 506 30,000  Level Anchorage Center
Sat 04:41:56 PM 63.0833 -157.9500 293° West 450 518 30,000  Level Anchorage Center
Sat 04:42:56 PM 63.1167 -158.2000 287° West 440 506 30,000  Level Anchorage Center
Sat 04:43:56 PM 63.1500 -158.4667 286° West 440 506 30,000  Level Anchorage Center
Sat 04:44:56 PM 63.2000 -158.7167 294° West 440 506 30,000  Level Anchorage Center
Sat 04:45:57 PM 63.2333 -158.9833 286° West 440 506 30,000  Level Anchorage Center
Sat 04:46:57 PM 63.2667 -159.2333 287° West 440 506 30,000  Level Anchorage Center
Sat 04:47:57 PM 63.3000 -159.5000 286° West 440 506 30,000  Level Anchorage Center
Sat 04:48:57 PM 63.3333 -159.7667 286° West 440 506 30,000  Level Anchorage Center
Sat 04:49:57 PM 63.3833 -160.0167 294° West 430 495 30,000  Level Anchorage Center
Sat 04:50:57 PM 63.4167 -160.2833 286° West 440 506 30,000  Level Anchorage Center
Sat 04:51:57 PM 63.4500 -160.5500 286° West 440 506 30,000  Level Anchorage Center
Sat 04:52:57 PM 63.4833 -160.8167 286° West 440 506 30,000  Level Anchorage Center
Sat 04:53:58 PM 63.5167 -161.0667 287° West 440 506 30,000  Level Anchorage Center
Sat 04:54:58 PM 63.5500 -161.3333 286° West 430 495 30,000  Level Anchorage Center
Sat 04:55:58 PM 63.5833 -161.6000 286° West 440 506 30,000  Level Anchorage Center
Sat 04:56:58 PM 63.6167 -161.8667 286° West 430 495 30,000  Level Anchorage Center
Sat 04:57:58 PM 63.6500 -162.1333 286° West 440 506 30,000  Level Anchorage Center
Sat 04:58:58 PM 63.6667 -162.4000 278° West 440 506 30,000  Level Anchorage Center
Sat 04:59:58 PM 63.7000 -162.6667 286° West 440 506 30,000  Level Anchorage Center
Sat 05:00:58 PM 63.7333 -162.9333 286° West 440 506 30,000  Level Anchorage Center
Sat 05:01:58 PM 63.7667 -163.2000 286° West 430 495 30,000  Level Anchorage Center
Sat 05:02:58 PM 63.8000 -163.4667 286° West 440 506 30,000  Level Anchorage Center
Sat 05:03:59 PM 63.8167 -163.7500 278° West 440 506 30,000  Level Anchorage Center
Sat 05:04:59 PM 63.8500 -164.0167 286° West 450 518 30,000  Level Anchorage Center
Sat 05:05:59 PM 63.8833 -164.2833 286° West 440 506 30,000  Level Anchorage Center
Sat 05:06:59 PM 63.9000 -164.5667 278° West 450 518 30,000  Level Anchorage Center
Sat 05:07:59 PM 63.9333 -164.8500 285° West 450 518 30,000  Level Anchorage Center
Sat 05:08:59 PM 63.9667 -165.1167 286° West 440 506 30,000  Level Anchorage Center
Sat 05:09:59 PM 63.9833 -165.3833 278° West 440 506 30,000  Level Anchorage Center
Sat 05:10:59 PM 64.0167 -165.6667 285° West 450 518 30,000  Level Anchorage Center
Sat 05:11:59 PM 64.0333 -165.9500 278° West 450 518 30,000  Level Anchorage Center
Sat 05:12:59 PM 64.0667 -166.2333 285° West 450 518 30,000  Level Anchorage Center
Sat 05:14:00 PM 64.0833 -166.5167 278° West 450 518 30,000  Level Anchorage Center
Sat 05:15:00 PM 64.1000 -166.8000 278° West 460 529 30,000  Level Anchorage Center
Sat 05:16:00 PM 64.1333 -167.0833 285° West 450 518 30,000  Level Anchorage Center
Sat 05:17:00 PM 64.1500 -167.3667 278° West 460 529 30,000  Level Anchorage Center
Sat 05:18:00 PM 64.1833 -167.6667 284° West 460 529 30,000  Level Anchorage Center
Sat 05:19:00 PM 64.2000 -167.9667 277° West 460 529 30,000  Level Anchorage Center
Sat 05:20:00 PM 64.2167 -168.2500 278° West 470 541 30,000  Level Anchorage Center
Sat 05:21:00 PM 64.2500 -168.5500 284° West 470 541 30,000  Level Anchorage Center
Sat 05:22:01 PM 64.2667 -168.8500 277° West 470 541 30,000  Level Anchorage Center
Sat 05:23:00 PM 64.2833 -169.1667 277° West 480 552 30,000  Level Anchorage Center
Sat 05:24:00 PM 64.3000 -169.4667 277° West 480 552 30,000  Level Anchorage Center
Sat 05:25:00 PM 64.3167 -169.7667 277° West 470 541 30,000  Level Anchorage Center
Sat 05:26:01 PM 64.3333 -170.0667 277° West 470 541 30,000  Level Anchorage Center
Sat 05:27:01 PM 64.3500 -170.3833 277° West 480 552 30,000  Level Anchorage Center
Sat 05:28:01 PM 64.3667 -170.6833 277° West 480 552 30,000  Level Anchorage Center
Sat 05:29:01 PM 64.3833 -171.0000 277° West 480 552 30,000  Level Anchorage Center
Sat 05:30:01 PM 64.3833 -171.3000 270° West 490 564 30,000  Level Anchorage Center
Sat 05:32:00 PM 64.3543 -171.8903 264° West  Level FlightAware Approximate
Sat 05:39:00 PM 64.2329 -173.9628 263° West  Level FlightAware Approximate
Sat 05:40:00 PM 64.2132 -174.2573 261° West  Level FlightAware Approximate
Sat 05:41:00 PM 64.1929 -174.5514 261° West  Level FlightAware Approximate
Sat 05:42:00 PM 64.1720 -174.8451 261° West  Level FlightAware Approximate
Sat 05:43:00 PM 64.1505 -175.1383 261° West  Level FlightAware Approximate
Sat 05:44:00 PM 64.1284 -175.4310 260° West  Level FlightAware Approximate
Sat 05:45:00 PM 64.1064 -175.7236 261° West  Level FlightAware Approximate
Sat 05:46:00 PM 64.0846 -176.0159 260° West  Level FlightAware Approximate
Sat 05:47:00 PM 64.0622 -176.3078 260° West  Level FlightAware Approximate
Sat 05:48:00 PM 64.0392 -176.5993 260° West  Level FlightAware Approximate
Sat 05:49:00 PM 64.0156 -176.8902 260° West  Level FlightAware Approximate
Sat 05:50:00 PM 63.9915 -177.1807 259° West  Level FlightAware Approximate
Sat 05:51:00 PM 63.9667 -177.4706 259° West  Level FlightAware Approximate
Sat 05:52:00 PM 63.9414 -177.7601 259° West  Level FlightAware Approximate
Sat 05:53:00 PM 63.9155 -178.0490 259° West  Level FlightAware Approximate
Sat 05:54:00 PM 63.8890 -178.3373 258° West  Level FlightAware Approximate
Sat 05:55:00 PM 63.8620 -178.6252 258° West  Level FlightAware Approximate
Sat 05:56:00 PM 63.8344 -178.9124 258° West  Level FlightAware Approximate
Sat 05:57:00 PM 63.8062 -179.1991 258° West  Level FlightAware Approximate
Sat 05:58:00 PM 63.7775 -179.4852 257° West  Level FlightAware Approximate
Sat 05:59:00 PM 63.7482 -179.7707 257° West  Level FlightAware Approximate
Sat 06:00:00 PM 63.7183 179.9444 257° West  Level FlightAware Approximate
Sat 06:01:00 PM 63.6879 179.6600 257° West  Level FlightAware Approximate
Sat 06:02:00 PM 63.6569 179.3763 256° West  Level FlightAware Approximate
Sat 06:03:00 PM 63.6253 179.0933 256° West  Level FlightAware Approximate
Sat 06:04:00 PM 63.5932 178.8108 256° West  Level FlightAware Approximate
Sat 06:05:00 PM 63.5605 178.5290 256° West  Level FlightAware Approximate
Sat 06:06:00 PM 63.5273 178.2479 255° West  Level FlightAware Approximate
Sat 06:07:00 PM 63.4936 177.9674 255° West  Level FlightAware Approximate
Sat 06:08:00 PM 63.4590 177.6877 255° West  Level FlightAware Approximate
Sat 06:09:00 PM 63.4239 177.4088 254° West  Level FlightAware Approximate
Sat 06:10:00 PM 63.3881 177.1305 254° West  Level FlightAware Approximate
Sat 06:11:00 PM 63.3519 176.8530 254° West  Level FlightAware Approximate
Sat 06:12:00 PM 63.3151 176.5761 254° West  Level FlightAware Approximate
Sat 06:13:00 PM 63.2778 176.3000 253° West  Level FlightAware Approximate
Sat 06:14:00 PM 63.2399 176.0246 253° West  Level FlightAware Approximate
Sat 06:15:00 PM 63.2015 175.7499 253° West  Level FlightAware Approximate
Sat 06:16:00 PM 63.1626 175.4759 253° West  Level FlightAware Approximate
Sat 06:17:00 PM 63.1231 175.2027 252° West  Level FlightAware Approximate
Sat 06:18:00 PM 63.0831 174.9302 252° West  Level FlightAware Approximate
Sat 06:19:00 PM 63.0426 174.6585 252° West  Level FlightAware Approximate
Sat 06:20:00 PM 63.0016 174.3875 252° West  Level FlightAware Approximate
Sat 06:21:00 PM 62.9601 174.1173 251° West  Level FlightAware Approximate
Sat 06:22:00 PM 62.9181 173.8479 251° West  Level FlightAware Approximate
Sat 06:23:00 PM 62.8755 173.5792 251° West  Level FlightAware Approximate
Sat 06:24:00 PM 62.8324 173.3114 251° West  Level FlightAware Approximate
Sat 06:25:00 PM 62.7889 173.0443 250° West  Level FlightAware Approximate
Sat 06:26:00 PM 62.7448 172.7780 250° West  Level FlightAware Approximate
Sat 06:27:00 PM 62.7002 172.5125 250° West  Level FlightAware Approximate
Sat 06:28:00 PM 62.6551 172.2478 250° West  Level FlightAware Approximate
Sat 06:29:00 PM 62.6095 171.9840 250° West  Level FlightAware Approximate
Sat 06:30:00 PM 62.5635 171.7209 249° West  Level FlightAware Approximate
Sat 06:31:00 PM 62.5169 171.4587 249° West  Level FlightAware Approximate
Sat 06:32:00 PM 62.4698 171.1973 249° West  Level FlightAware Approximate
Sat 06:33:00 PM 62.4223 170.9366 249° West  Level FlightAware Approximate
Sat 06:34:00 PM 62.3743 170.6769 248° West  Level FlightAware Approximate
Sat 06:35:00 PM 62.3257 170.4180 248° West  Level FlightAware Approximate
Sat 06:36:00 PM 62.2768 170.1599 248° West  Level FlightAware Approximate
Sat 06:37:00 PM 62.2273 169.9026 248° West  Level FlightAware Approximate
Sat 06:38:00 PM 62.1773 169.6462 247° West  Level FlightAware Approximate
Sat 06:39:00 PM 62.1269 169.3907 247° West  Level FlightAware Approximate
Sat 06:40:00 PM 62.0760 169.1360 247° West  Level FlightAware Approximate
Sat 06:41:00 PM 62.0247 168.8821 247° West  Level FlightAware Approximate
Sat 06:42:00 PM 61.9729 168.6292 247° West  Level FlightAware Approximate
Sat 06:43:00 PM 61.9206 168.3770 246° West  Level FlightAware Approximate
Sat 06:44:00 PM 61.8679 168.1258 246° West  Level FlightAware Approximate
Sat 06:45:00 PM 61.8147 167.8754 246° West  Level FlightAware Approximate
Sat 06:46:00 PM 61.7610 167.6259 246° West  Level FlightAware Approximate
Sat 06:47:00 PM 61.7069 167.3772 245° Southwest  Level FlightAware Approximate
Sat 06:48:00 PM 61.6524 167.1295 245° Southwest  Level FlightAware Approximate
Sat 06:49:00 PM 61.5974 166.8826 245° Southwest  Level FlightAware Approximate
Sat 06:50:00 PM 61.5420 166.6365 245° Southwest  Level FlightAware Approximate
Sat 06:51:00 PM 61.4861 166.3914 245° Southwest  Level FlightAware Approximate
Sat 06:52:00 PM 61.4298 166.1472 244° Southwest  Level FlightAware Approximate
Sat 06:53:00 PM 61.3730 165.9038 244° Southwest  Level FlightAware Approximate
Sat 06:54:00 PM 61.3158 165.6613 244° Southwest  Level FlightAware Approximate
Sat 06:55:00 PM 61.2582 165.4197 244° Southwest  Level FlightAware Approximate
Sat 06:56:00 PM 61.2002 165.1790 243° Southwest  Level FlightAware Approximate
Sat 06:57:00 PM 61.1417 164.9391 243° Southwest  Level FlightAware Approximate
Sat 06:58:00 PM 61.0828 164.7002 243° Southwest  Level FlightAware Approximate
Sat 06:59:00 PM 61.0235 164.4622 243° Southwest  Level FlightAware Approximate
Sat 07:00:00 PM 60.9638 164.2250 243° Southwest  Level FlightAware Approximate
Sat 07:01:00 PM 60.9036 163.9888 242° Southwest  Level FlightAware Approximate
Sat 07:02:00 PM 60.8431 163.7534 242° Southwest  Level FlightAware Approximate
Sat 07:03:00 PM 60.7821 163.5189 242° Southwest  Level FlightAware Approximate
Sat 07:04:00 PM 60.7207 163.2853 242° Southwest  Level FlightAware Approximate
Sat 07:05:00 PM 60.6589 163.0526 242° Southwest  Level FlightAware Approximate
Sat 07:06:00 PM 60.5968 162.8209 241° Southwest  Level FlightAware Approximate
Sat 07:07:00 PM 60.5342 162.5900 241° Southwest  Level FlightAware Approximate
Sat 07:08:00 PM 60.4712 162.3600 241° Southwest  Level FlightAware Approximate
Sat 07:09:00 PM 60.4078 162.1308 241° Southwest  Level FlightAware Approximate
Sat 07:10:00 PM 60.3441 161.9026 241° Southwest  Level FlightAware Approximate
Sat 07:11:00 PM 60.2799 161.6753 240° Southwest  Level FlightAware Approximate
Sat 07:12:00 PM 60.2154 161.4489 240° Southwest  Level FlightAware Approximate
Sat 07:13:00 PM 60.1505 161.2233 240° Southwest  Level FlightAware Approximate
Sat 07:14:00 PM 60.0851 160.9987 240° Southwest  Level FlightAware Approximate
Sat 07:15:00 PM 60.0195 160.7749 240° Southwest  Level FlightAware Approximate
Sat 07:16:00 PM 59.9534 160.5520 239° Southwest  Level FlightAware Approximate
Sat 07:17:00 PM 59.8870 160.3301 239° Southwest  Level FlightAware Approximate
Sat 07:18:00 PM 59.8201 160.1090 239° Southwest  Level FlightAware Approximate
Sat 07:19:00 PM 59.7530 159.8888 239° Southwest  Level FlightAware Approximate
Sat 07:20:00 PM 59.6854 159.6695 239° Southwest  Level FlightAware Approximate
Sat 07:21:00 PM 59.6175 159.4510 238° Southwest  Level FlightAware Approximate
Sat 07:22:00 PM 59.5493 159.2335 238° Southwest  Level FlightAware Approximate
Sat 07:23:00 PM 59.4806 159.0168 238° Southwest  Level FlightAware Approximate
Sat 07:24:00 PM 59.4116 158.8010 238° Southwest  Level FlightAware Approximate
Sat 07:25:00 PM 59.3423 158.5861 238° Southwest  Level FlightAware Approximate
Sat 07:26:00 PM 59.2726 158.3721 238° Southwest  Level FlightAware Approximate
Sat 07:27:00 PM 59.2026 158.1590 237° Southwest  Level FlightAware Approximate
Sat 07:28:00 PM 59.1322 157.9467 237° Southwest  Level FlightAware Approximate
Sat 07:29:00 PM 59.0614 157.7353 237° Southwest  Level FlightAware Approximate
Sat 07:30:00 PM 58.9904 157.5247 237° Southwest  Level FlightAware Approximate
Sat 07:31:00 PM 58.9189 157.3151 237° Southwest  Level FlightAware Approximate
Sat 07:32:00 PM 58.8472 157.1063 236° Southwest  Level FlightAware Approximate
Sat 07:33:00 PM 58.7751 156.8983 236° Southwest  Level FlightAware Approximate
Sat 07:34:00 PM 58.7027 156.6913 236° Southwest  Level FlightAware Approximate
Sat 07:35:00 PM 58.6299 156.4851 236° Southwest  Level FlightAware Approximate
Sat 07:36:00 PM 58.5568 156.2797 236° Southwest  Level FlightAware Approximate
Sat 07:37:00 PM 58.4834 156.0752 236° Southwest  Level FlightAware Approximate
Sat 07:38:00 PM 58.4097 155.8716 235° Southwest  Level FlightAware Approximate
Sat 07:39:00 PM 58.3356 155.6688 235° Southwest  Level FlightAware Approximate
Sat 07:40:00 PM 58.2613 155.4669 235° Southwest  Level FlightAware Approximate
Sat 07:41:00 PM 58.1866 155.2658 235° Southwest  Level FlightAware Approximate
Sat 07:42:00 PM 58.1116 155.0656 235° Southwest  Level FlightAware Approximate
Sat 07:43:00 PM 58.0363 154.8662 235° Southwest  Level FlightAware Approximate
Sat 07:44:00 PM 57.9606 154.6676 234° Southwest  Level FlightAware Approximate
Sat 07:45:00 PM 57.8847 154.4699 234° Southwest  Level FlightAware Approximate
Sat 07:46:00 PM 57.8084 154.2730 234° Southwest  Level FlightAware Approximate
Sat 07:47:00 PM 57.7319 154.0770 234° Southwest  Level FlightAware Approximate
Sat 07:48:00 PM 57.6550 153.8817 234° Southwest  Level FlightAware Approximate
Sat 07:49:00 PM 57.5779 153.6873 234° Southwest  Level FlightAware Approximate
Sat 07:50:00 PM 57.5005 153.4938 233° Southwest  Level FlightAware Approximate
Sat 07:51:00 PM 57.4227 153.3010 233° Southwest  Level FlightAware Approximate
Sat 07:52:00 PM 57.3447 153.1091 233° Southwest  Level FlightAware Approximate
Sat 07:53:00 PM 57.2663 152.9180 233° Southwest  Level FlightAware Approximate
Sat 07:54:00 PM 57.1877 152.7276 233° Southwest  Level FlightAware Approximate
Sat 07:55:00 PM 57.1088 152.5382 233° Southwest  Level FlightAware Approximate
Sat 07:56:00 PM 57.0297 152.3495 232° Southwest  Level FlightAware Approximate
Sat 07:57:00 PM 56.9502 152.1616 232° Southwest  Level FlightAware Approximate
Sat 07:58:00 PM 56.8704 151.9745 232° Southwest  Level FlightAware Approximate
Sat 07:59:00 PM 56.7904 151.7882 232° Southwest  Level FlightAware Approximate
Sat 08:00:00 PM 56.7101 151.6027 232° Southwest  Level FlightAware Approximate
Sat 08:01:00 PM 56.6295 151.4180 232° Southwest  Level FlightAware Approximate
Sat 08:02:00 PM 56.5487 151.2341 231° Southwest  Level FlightAware Approximate
Sat 08:03:00 PM 56.4676 151.0510 231° Southwest  Level FlightAware Approximate
Sat 08:04:00 PM 56.3862 150.8686 231° Southwest  Level FlightAware Approximate
Sat 08:05:00 PM 56.3045 150.6871 231° Southwest  Level FlightAware Approximate
Sat 08:06:00 PM 56.2226 150.5063 231° Southwest  Level FlightAware Approximate
Sat 08:07:00 PM 56.1404 150.3263 231° Southwest  Level FlightAware Approximate
Sat 08:08:00 PM 56.0580 150.1470 231° Southwest  Level FlightAware Approximate
Sat 08:09:00 PM 55.9753 149.9685 230° Southwest  Level FlightAware Approximate
Sat 08:10:00 PM 55.8923 149.7908 230° Southwest  Level FlightAware Approximate
Sat 08:11:00 PM 55.8092 149.6138 230° Southwest  Level FlightAware Approximate
Sat 08:12:00 PM 55.7257 149.4376 230° Southwest  Level FlightAware Approximate
Sat 08:13:00 PM 55.6420 149.2621 230° Southwest  Level FlightAware Approximate
Sat 08:14:00 PM 55.5581 149.0874 230° Southwest  Level FlightAware Approximate
Sat 08:15:00 PM 55.4739 148.9134 230° Southwest  Level FlightAware Approximate
Sat 08:16:00 PM 55.3894 148.7402 229° Southwest  Level FlightAware Approximate
Sat 08:17:00 PM 55.3047 148.5677 229° Southwest  Level FlightAware Approximate
Sat 08:18:00 PM 55.2198 148.3959 229° Southwest  Level FlightAware Approximate
Sat 08:19:00 PM 55.1347 148.2249 229° Southwest  Level FlightAware Approximate
Sat 08:20:00 PM 55.0492 148.0546 229° Southwest  Level FlightAware Approximate
Sat 08:21:00 PM 54.9636 147.8850 229° Southwest  Level FlightAware Approximate
Sat 08:22:00 PM 54.8777 147.7162 229° Southwest  Level FlightAware Approximate
Sat 08:23:00 PM 54.7916 147.5480 228° Southwest  Level FlightAware Approximate
Sat 08:24:00 PM 54.7053 147.3806 228° Southwest  Level FlightAware Approximate
Sat 08:25:00 PM 54.6187 147.2139 228° Southwest  Level FlightAware Approximate
Sat 08:26:00 PM 54.5319 147.0479 228° Southwest  Level FlightAware Approximate
Sat 08:27:00 PM 54.4449 146.8826 228° Southwest  Level FlightAware Approximate
Sat 08:28:00 PM 54.3576 146.7180 228° Southwest  Level FlightAware Approximate
Sat 08:29:00 PM 54.2701 146.5541 228° Southwest  Level FlightAware Approximate
Sat 08:30:00 PM 54.1824 146.3909 227° Southwest  Level FlightAware Approximate
Sat 08:31:00 PM 54.0947 146.2282 227° Southwest  Level FlightAware Approximate
Sat 08:32:00 PM 54.0068 146.0660 227° Southwest  Level FlightAware Approximate
Sat 08:33:00 PM 53.9187 145.9044 227° Southwest  Level FlightAware Approximate
Sat 08:34:00 PM 53.8305 145.7435 227° Southwest  Level FlightAware Approximate
Sat 08:35:00 PM 53.7420 145.5833 227° Southwest  Level FlightAware Approximate
Sat 08:36:00 PM 53.6533 145.4238 227° Southwest  Level FlightAware Approximate
Sat 08:37:00 PM 53.5643 145.2649 227° Southwest  Level FlightAware Approximate
Sat 08:38:00 PM 53.4752 145.1067 227° Southwest  Level FlightAware Approximate
Sat 08:39:00 PM 53.3858 144.9491 226° Southwest  Level FlightAware Approximate
Sat 08:40:00 PM 53.2963 144.7923 226° Southwest  Level FlightAware Approximate
Sat 08:41:00 PM 53.2066 144.6360 226° Southwest  Level FlightAware Approximate
Sat 08:42:00 PM 53.1166 144.4805 226° Southwest  Level FlightAware Approximate
Sat 08:43:00 PM 53.0264 144.3255 226° Southwest  Level FlightAware Approximate
Sat 08:44:00 PM 52.9361 144.1713 226° Southwest  Level FlightAware Approximate
Sat 08:45:00 PM 52.8455 144.0177 226° Southwest  Level FlightAware Approximate
Sat 08:46:00 PM 52.7548 143.8647 226° Southwest  Level FlightAware Approximate
Sat 08:47:00 PM 52.6638 143.7123 225° Southwest  Level FlightAware Approximate
Sat 08:48:00 PM 52.5727 143.5606 225° Southwest  Level FlightAware Approximate
Sat 08:49:00 PM 52.4813 143.4095 225° Southwest  Level FlightAware Approximate
Sat 08:50:00 PM 52.3898 143.2590 225° Southwest  Level FlightAware Approximate
Sat 08:51:00 PM 52.2981 143.1092 225° Southwest  Level FlightAware Approximate
Sat 08:52:00 PM 52.2062 142.9600 225° Southwest  Level FlightAware Approximate
Sat 08:53:00 PM 52.1137 142.8120 225° Southwest  Level FlightAware Approximate
Sat 08:54:00 PM 52.0211 142.6646 224° Southwest  Level FlightAware Approximate
Sat 08:55:00 PM 51.9283 142.5178 224° Southwest  Level FlightAware Approximate
Sat 08:56:00 PM 51.8353 142.3716 224° Southwest  Level FlightAware Approximate
Sat 08:57:00 PM 51.7421 142.2261 224° Southwest  Level FlightAware Approximate
Sat 08:58:00 PM 51.6487 142.0811 224° Southwest  Level FlightAware Approximate
Sat 08:59:00 PM 51.5551 141.9367 224° Southwest  Level FlightAware Approximate
Sat 09:00:00 PM 51.4614 141.7930 224° Southwest  Level FlightAware Approximate
Sat 09:01:00 PM 51.3675 141.6498 224° Southwest  Level FlightAware Approximate
Sat 09:02:00 PM 51.2734 141.5072 224° Southwest  Level FlightAware Approximate
Sat 09:03:00 PM 51.1792 141.3652 223° Southwest  Level FlightAware Approximate
Sat 09:04:00 PM 51.0848 141.2237 223° Southwest  Level FlightAware Approximate
Sat 09:05:00 PM 50.9902 141.0829 223° Southwest  Level FlightAware Approximate
Sat 09:06:00 PM 50.8955 140.9426 223° Southwest  Level FlightAware Approximate
Sat 09:07:00 PM 50.8005 140.8029 223° Southwest  Level FlightAware Approximate
Sat 09:08:00 PM 50.7054 140.6637 223° Southwest  Level FlightAware Approximate
Sat 09:09:00 PM 50.6102 140.5251 223° Southwest  Level FlightAware Approximate
Sat 09:10:00 PM 50.5148 140.3871 223° Southwest  Level FlightAware Approximate
Sat 09:11:00 PM 50.4192 140.2496 223° Southwest  Level FlightAware Approximate
Sat 09:12:00 PM 50.3234 140.1127 222° Southwest  Level FlightAware Approximate
Sat 09:13:00 PM 50.2276 139.9764 222° Southwest  Level FlightAware Approximate
Sat 09:14:00 PM 50.1315 139.8405 222° Southwest  Level FlightAware Approximate
Sat 09:15:00 PM 50.0353 139.7053 222° Southwest  Level FlightAware Approximate
Sat 09:16:00 PM 49.9389 139.5706 222° Southwest  Level FlightAware Approximate
Sat 09:17:00 PM 49.8424 139.4364 222° Southwest  Level FlightAware Approximate
Sat 09:18:00 PM 49.7457 139.3027 222° Southwest  Level FlightAware Approximate
Sat 09:19:00 PM 49.6488 139.1696 222° Southwest  Level FlightAware Approximate
Sat 09:20:00 PM 49.5518 139.0370 222° Southwest  Level FlightAware Approximate
Sat 09:21:00 PM 49.4547 138.9049 221° Southwest  Level FlightAware Approximate
Sat 09:22:00 PM 49.3574 138.7734 221° Southwest  Level FlightAware Approximate
Sat 09:23:00 PM 49.2600 138.6424 221° Southwest  Level FlightAware Approximate
Sat 09:24:00 PM 49.1624 138.5119 221° Southwest  Level FlightAware Approximate
Sat 09:25:00 PM 49.0647 138.3819 221° Southwest  Level FlightAware Approximate
Sat 09:26:00 PM 48.9668 138.2524 221° Southwest  Level FlightAware Approximate
Sat 09:27:00 PM 48.8688 138.1234 221° Southwest  Level FlightAware Approximate
Sat 09:28:00 PM 48.7703 137.9954 220° Southwest  Level FlightAware Approximate
Sat 09:29:00 PM 48.6712 137.8690 220° Southwest  Level FlightAware Approximate
Sat 09:30:00 PM 48.5718 137.7431 220° Southwest  Level FlightAware Approximate
Sat 09:31:00 PM 48.4724 137.6177 220° Southwest  Level FlightAware Approximate
Sat 09:32:00 PM 48.3728 137.4927 220° Southwest  Level FlightAware Approximate
Sat 09:33:00 PM 48.2731 137.3683 220° Southwest  Level FlightAware Approximate
Sat 09:34:00 PM 48.1732 137.2443 220° Southwest  Level FlightAware Approximate
Sat 09:35:00 PM 48.0733 137.1207 220° Southwest  Level FlightAware Approximate
Sat 09:36:00 PM 47.9741 136.9961 220° Southwest  Level FlightAware Approximate
Sat 09:37:00 PM 47.8747 136.8719 220° Southwest  Level FlightAware Approximate
Sat 09:40:00 PM 49.1822 -123.4299 297° West  Level FlightAware Approximate
Sat 09:41:00 PM 49.2404 -123.5948 301° West  Level FlightAware Approximate
Sat 09:42:00 PM 49.3031 -123.7561 307° West  Level FlightAware Approximate
Sat 09:43:00 PM 49.3683 -123.9108 295° West  Level FlightAware Approximate
Sat 09:44:00 PM 49.3579 -124.0474 205° Southwest  Level FlightAware Approximate
Sat 09:45:00 PM 49.2472 -124.1279 205° Southwest  Level FlightAware Approximate
Sat 09:46:00 PM 49.2681 -124.2608 305° West  Level FlightAware Approximate
Sat 09:47:00 PM 49.3389 -124.4141 305° West  Level FlightAware Approximate
Sat 09:48:00 PM 49.4095 -124.5678 305° West  Level FlightAware Approximate
Sat 09:49:00 PM 49.4883 -124.7118 306° West  Level FlightAware Approximate
Sat 09:50:00 PM 49.5608 -124.8638 306° West  Level FlightAware Approximate
Sat 09:51:00 PM 49.6332 -125.0163 306° West  Level FlightAware Approximate
Sat 09:52:00 PM 49.7054 -125.1692 306° West  Level FlightAware Approximate
Sat 09:53:00 PM 49.7773 -125.3226 306° West  Level FlightAware Approximate
Sat 09:54:00 PM 49.8491 -125.4765 306° West  Level FlightAware Approximate
Sat 09:55:00 PM 49.9207 -125.6308 306° West  Level FlightAware Approximate
Sat 09:56:00 PM 49.9915 -125.7861 303° West  Level FlightAware Approximate
Sat 09:57:00 PM 50.0580 -125.9462 303° West  Level FlightAware Approximate
Sat 09:58:00 PM 50.1244 -126.1067 303° West  Level FlightAware Approximate
Sat 09:59:00 PM 50.1909 -126.2673 304° West  Level FlightAware Approximate
Sat 10:00:00 PM 50.2595 -126.4259 304° West  Level FlightAware Approximate
Sat 10:01:00 PM 50.3279 -126.5849 304° West  Level FlightAware Approximate
Sat 10:02:00 PM 50.3962 -126.7444 304° West  Level FlightAware Approximate
Sat 10:03:00 PM 50.4642 -126.9044 304° West  Level FlightAware Approximate
Sat 10:04:00 PM 50.5320 -127.0648 304° West  Level FlightAware Approximate
Sat 10:05:00 PM 50.5995 -127.2257 304° West  Level FlightAware Approximate
Sat 10:06:00 PM 50.6875 -127.3574 312° West  Level FlightAware Approximate
Sat 10:07:00 PM 50.7692 -127.5015 312° West  Level FlightAware Approximate
Sat 10:08:00 PM 50.8507 -127.6462 312° West  Level FlightAware Approximate
Sat 10:09:00 PM 50.9321 -127.7915 312° West  Level FlightAware Approximate
Sat 10:10:00 PM 51.0216 -127.9216 328° Northwest  Level FlightAware Approximate
Sat 10:11:00 PM 51.1076 -128.0595 313° West  Level FlightAware Approximate
Sat 10:12:00 PM 51.1912 -128.2022 313° West  Level FlightAware Approximate
Sat 10:13:00 PM 51.2747 -128.3454 313° West  Level FlightAware Approximate
Sat 10:14:00 PM 51.3579 -128.4892 313° West  Level FlightAware Approximate
Sat 10:15:00 PM 51.4410 -128.6334 313° West  Level FlightAware Approximate
Sat 10:16:00 PM 51.5239 -128.7782 313° West  Level FlightAware Approximate
Sat 10:17:00 PM 51.6067 -128.9236 313° West  Level FlightAware Approximate
Sat 10:18:00 PM 51.6920 -129.0651 316° Northwest  Level FlightAware Approximate
Sat 10:19:00 PM 51.7802 -129.2024 316° Northwest  Level FlightAware Approximate
Sat 10:20:00 PM 51.8683 -129.3402 316° Northwest  Level FlightAware Approximate
Sat 10:21:00 PM 51.9561 -129.4785 316° Northwest  Level FlightAware Approximate
Sat 10:22:00 PM 52.0438 -129.6174 316° Northwest  Level FlightAware Approximate
Sat 10:23:00 PM 52.1307 -129.7579 313° West  Level FlightAware Approximate
Sat 10:24:00 PM 52.2143 -129.9040 313° West  Level FlightAware Approximate
Sat 10:25:00 PM 52.2953 -130.0541 310° West  Level FlightAware Approximate
Sat 10:26:00 PM 52.3743 -130.2073 310° West  Level FlightAware Approximate
Sat 10:27:00 PM 52.4531 -130.3611 310° West  Level FlightAware Approximate
Sat 10:28:00 PM 52.5317 -130.5154 310° West  Level FlightAware Approximate
Sat 10:29:00 PM 52.6101 -130.6702 310° West  Level FlightAware Approximate
Sat 10:30:00 PM 52.6941 -130.8171 314° West  Level FlightAware Approximate
Sat 10:31:00 PM 52.7785 -130.9638 314° West  Level FlightAware Approximate
Sat 10:32:00 PM 52.8627 -131.1110 313° West  Level FlightAware Approximate
Sat 10:33:00 PM 52.9467 -131.2588 313° West  Level FlightAware Approximate
Sat 10:34:00 PM 53.0305 -131.4072 313° West  Level FlightAware Approximate
Sat 10:35:00 PM 53.1142 -131.5562 313° West  Level FlightAware Approximate
Sat 10:36:00 PM 53.1976 -131.7057 313° West  Level FlightAware Approximate
Sat 10:37:00 PM 53.2769 -131.8613 306° West  Level FlightAware Approximate
Sat 10:38:00 PM 53.3493 -132.0268 306° West  Level FlightAware Approximate
Sat 10:39:00 PM 53.4288 -132.1827 312° West  Level FlightAware Approximate
Sat 10:40:00 PM 53.5105 -132.3360 312° West  Level FlightAware Approximate
Sat 10:41:00 PM 53.5920 -132.4900 312° West  Level FlightAware Approximate
Sat 10:42:00 PM 53.6735 -132.6443 312° West  Level FlightAware Approximate
Sat 10:43:00 PM 53.7551 -132.7986 312° West  Level FlightAware Approximate
Sat 10:44:00 PM 53.8365 -132.9536 312° West  Level FlightAware Approximate
Sat 10:45:00 PM 53.9177 -133.1092 312° West  Level FlightAware Approximate
Sat 10:46:00 PM 53.9988 -133.2653 311° West  Level FlightAware Approximate
Sat 10:47:00 PM 54.0867 -133.4103 317° Northwest  Level FlightAware Approximate
Sat 10:48:00 PM 54.1764 -133.5526 317° Northwest  Level FlightAware Approximate
Sat 10:49:00 PM 54.2553 -133.7107 311° West  Level FlightAware Approximate
Sat 10:50:00 PM 54.3348 -133.8704 311° West  Level FlightAware Approximate
Sat 10:51:00 PM 54.4141 -134.0308 310° West  Level FlightAware Approximate
Sat 10:52:00 PM 54.4931 -134.1917 310° West  Level FlightAware Approximate
Sat 10:53:00 PM 54.5720 -134.3533 310° West  Level FlightAware Approximate
Sat 10:54:00 PM 54.6506 -134.5155 310° West  Level FlightAware Approximate
Sat 10:55:00 PM 54.7312 -134.6752 312° West  Level FlightAware Approximate
Sat 10:56:00 PM 54.8130 -134.8331 312° West  Level FlightAware Approximate
Sat 10:57:00 PM 54.8947 -134.9918 312° West  Level FlightAware Approximate
Sat 10:58:00 PM 54.9761 -135.1510 312° West  Level FlightAware Approximate
Sat 10:59:00 PM 55.0574 -135.3110 312° West  Level FlightAware Approximate
Sat 11:00:00 PM 55.1384 -135.4715 311° West  Level FlightAware Approximate
Sat 11:01:00 PM 55.2192 -135.6327 311° West  Level FlightAware Approximate
Sat 11:02:00 PM 55.2998 -135.7946 311° West  Level FlightAware Approximate
Sat 11:03:00 PM 55.3802 -135.9572 311° West  Level FlightAware Approximate
Sat 11:04:00 PM 55.4604 -136.1203 311° West  Level FlightAware Approximate
Sat 11:05:00 PM 55.5404 -136.2842 311° West  Level FlightAware Approximate
Sat 11:06:00 PM 55.6201 -136.4487 311° West  Level FlightAware Approximate
Sat 11:07:00 PM 55.6996 -136.6139 311° West  Level FlightAware Approximate
Sat 11:08:00 PM 55.7789 -136.7798 310° West  Level FlightAware Approximate
Sat 11:09:00 PM 55.8580 -136.9463 310° West  Level FlightAware Approximate
Sat 11:10:00 PM 55.9362 -137.1143 310° West  Level FlightAware Approximate
Sat 11:11:00 PM 56.0141 -137.2834 309° West  Level FlightAware Approximate
Sat 11:12:00 PM 56.0916 -137.4532 309° West  Level FlightAware Approximate
Sat 11:13:00 PM 56.1690 -137.6237 309° West  Level FlightAware Approximate
Sat 11:14:00 PM 56.2461 -137.7949 309° West  Level FlightAware Approximate
Sat 11:15:00 PM 56.3229 -137.9667 309° West  Level FlightAware Approximate
Sat 11:16:00 PM 56.3995 -138.1392 309° West  Level FlightAware Approximate
Sat 11:17:00 PM 56.4759 -138.3125 309° West  Level FlightAware Approximate
Sat 11:18:00 PM 56.5521 -138.4864 309° West  Level FlightAware Approximate
Sat 11:19:00 PM 56.6280 -138.6610 308° West  Level FlightAware Approximate
Sat 11:20:00 PM 56.7036 -138.8364 308° West  Level FlightAware Approximate
Sat 11:21:00 PM 56.7790 -139.0124 308° West  Level FlightAware Approximate
Sat 11:22:00 PM 56.8542 -139.1891 308° West  Level FlightAware Approximate
Sat 11:23:00 PM 56.9291 -139.3666 308° West  Level FlightAware Approximate
Sat 11:24:00 PM 57.0037 -139.5448 308° West  Level FlightAware Approximate
Sat 11:25:00 PM 57.0781 -139.7237 307° West  Level FlightAware Approximate
Sat 11:26:00 PM 57.1523 -139.9033 307° West  Level FlightAware Approximate
Sat 11:27:00 PM 57.2262 -140.0836 307° West  Level FlightAware Approximate
Sat 11:28:00 PM 57.2998 -140.2646 307° West  Level FlightAware Approximate
Sat 11:29:00 PM 57.3731 -140.4464 307° West  Level FlightAware Approximate
Sat 11:30:00 PM 57.4463 -140.6289 307° West  Level FlightAware Approximate
Sat 11:31:00 PM 57.5191 -140.8121 307° West  Level FlightAware Approximate
Sat 11:32:00 PM 57.5917 -140.9961 306° West  Level FlightAware Approximate
Sat 11:33:00 PM 57.6640 -141.1808 306° West  Level FlightAware Approximate
Sat 11:34:00 PM 57.7360 -141.3662 306° West  Level FlightAware Approximate
Sat 11:35:00 PM 57.8078 -141.5524 306° West  Level FlightAware Approximate
Sat 11:36:00 PM 57.8792 -141.7393 306° West  Level FlightAware Approximate
Sat 11:37:00 PM 57.9487 -141.9293 305° West  Level FlightAware Approximate
Sat 11:38:00 PM 58.0177 -142.1202 304° West  Level FlightAware Approximate
Sat 11:39:00 PM 58.0864 -142.3118 304° West  Level FlightAware Approximate
Sat 11:40:00 PM 58.1548 -142.5042 304° West  Level FlightAware Approximate
Sat 11:41:00 PM 58.2230 -142.6973 304° West  Level FlightAware Approximate
Sat 11:42:00 PM 58.2908 -142.8912 304° West  Level FlightAware Approximate
Sat 11:43:00 PM 58.3584 -143.0858 304° West  Level FlightAware Approximate
Sat 11:44:00 PM 58.4256 -143.2811 303° West  Level FlightAware Approximate
Sat 11:45:00 PM 58.4926 -143.4772 303° West  Level FlightAware Approximate
Sat 11:46:00 PM 58.5592 -143.6741 303° West  Level FlightAware Approximate
Sat 11:47:00 PM 58.6255 -143.8718 303° West  Level FlightAware Approximate
Sat 11:48:00 PM 58.6916 -144.0702 303° West  Level FlightAware Approximate
Sat 11:49:00 PM 58.7573 -144.2693 303° West  Level FlightAware Approximate
Sat 11:50:00 PM 58.8227 -144.4692 302° West  Level FlightAware Approximate
Sat 11:51:00 PM 58.8877 -144.6699 302° West  Level FlightAware Approximate
Sat 11:52:00 PM 58.9525 -144.8713 302° West  Level FlightAware Approximate
Sat 11:53:00 PM 59.0170 -145.0734 302° West  Level FlightAware Approximate
Sat 11:54:00 PM 59.0811 -145.2764 302° West  Level FlightAware Approximate
Sat 11:55:00 PM 59.1458 -145.4790 302° West  Level FlightAware Approximate
Sat 11:56:00 PM 59.2102 -145.6824 302° West  Level FlightAware Approximate
Sat 11:57:00 PM 59.2740 -145.8868 302° West  Level FlightAware Approximate
Sat 11:58:00 PM 59.3376 -146.0920 301° West  Level FlightAware Approximate
Sat 11:59:00 PM 59.4008 -146.2980 301° West  Level FlightAware Approximate
Sun 12:00:00 AM 59.4826 -146.4752 316° Northwest  Level FlightAware Approximate
Sun 12:01:00 AM 59.5705 -146.6433 316° Northwest  Level FlightAware Approximate
Sun 12:02:00 AM 59.6583 -146.8124 316° Northwest  Level FlightAware Approximate
Sun 12:03:00 AM 59.7458 -146.9823 316° Northwest  Level FlightAware Approximate
Sun 12:04:00 AM 59.8331 -147.1531 316° Northwest  Level FlightAware Approximate
Sun 12:05:00 AM 59.9202 -147.3248 315° West  Level FlightAware Approximate
Sun 12:06:00 AM 60.0070 -147.4974 315° West  Level FlightAware Approximate
Sun 12:07:00 AM 60.0937 -147.6707 315° West  Level FlightAware Approximate
Sun 12:08:00 AM 60.1802 -147.8449 315° West  Level FlightAware Approximate
Sun 12:09:00 AM 60.2664 -148.0201 315° West  Level FlightAware Approximate
Sun 12:10:00 AM 60.3525 -148.1961 315° West  Level FlightAware Approximate
Sun 12:11:00 AM 60.4383 -148.3731 315° West  Level FlightAware Approximate
Sun 12:12:00 AM 60.5236 -148.5515 314° West  Level FlightAware Approximate
Sun 12:13:00 AM 60.6084 -148.7314 314° West  Level FlightAware Approximate
Sun 12:14:00 AM 60.6930 -148.9123 314° West  Level FlightAware Approximate
Sun 12:15:00 AM 60.7773 -149.0941 314° West  Level FlightAware Approximate
Sun 12:16:00 AM 60.8613 -149.2768 313° West  Level FlightAware Approximate
Sun 12:17:00 AM 60.9452 -149.4605 313° West  Level FlightAware Approximate
Sun 12:18:00 AM 61.0287 -149.6452 313° West  Level FlightAware Approximate
Sun 12:19:00 AM 61.1123 -149.8303 313° West  Level FlightAware Approximate
Sun 12:20:00 AM 61.1921 -150.0224 306° West  Level FlightAware Approximate
Sun 12:21:00 AM 61.2639 -150.2286 306° West  Level FlightAware Approximate
Sun 12:22:00 AM 61.3354 -150.4357 306° West  Level FlightAware Approximate
Sun 12:23:00 AM 61.4066 -150.6438 306° West  Level FlightAware Approximate
Sun 12:24:00 AM 61.4774 -150.8528 305° West  Level FlightAware Approximate
Sun 12:25:00 AM 61.5480 -151.0628 305° West  Level FlightAware Approximate
Sun 12:26:00 AM 61.6182 -151.2737 305° West  Level FlightAware Approximate
Sun 12:27:00 AM 61.6881 -151.4856 305° West  Level FlightAware Approximate
Sun 12:28:00 AM 61.7576 -151.6985 305° West  Level FlightAware Approximate
Sun 12:29:00 AM 61.8269 -151.9123 305° West  Level FlightAware Approximate
Sun 12:30:00 AM 61.8958 -152.1270 304° West  Level FlightAware Approximate
Sun 12:31:00 AM 61.9643 -152.3428 304° West  Level FlightAware Approximate
Sun 12:32:00 AM 62.0326 -152.5595 304° West  Level FlightAware Approximate
Sun 12:33:00 AM 62.1005 -152.7772 304° West  Level FlightAware Approximate
Sun 12:34:00 AM 62.1697 -152.9934 305° West  Level FlightAware Approximate
Sun 12:35:00 AM 62.2401 -153.2084 305° West  Level FlightAware Approximate
Sun 12:36:00 AM 62.3102 -153.4243 305° West  Level FlightAware Approximate
Sun 12:37:00 AM 62.3788 -153.6429 301° West  Level FlightAware Approximate
Sun 12:38:00 AM 62.4423 -153.8691 301° West  Level FlightAware Approximate
Sun 12:39:00 AM 62.4946 -154.1062 285° West  Level FlightAware Approximate
Sun 12:40:00 AM 62.5263 -154.3625 285° West  Level FlightAware Approximate
Sun 12:41:00 AM 62.5576 -154.6194 285° West  Level FlightAware Approximate
Sun 12:42:00 AM 62.5884 -154.8768 285° West  Level FlightAware Approximate
Sun 12:43:00 AM 62.6197 -155.1341 290° West  Level FlightAware Approximate
Sun 12:44:00 AM 62.6623 -155.3840 290° West  Level FlightAware Approximate
Sun 12:45:00 AM 62.7044 -155.6346 290° West  Level FlightAware Approximate
Sun 12:46:00 AM 62.7462 -155.8860 290° West  Level FlightAware Approximate
Sun 12:47:00 AM 62.7874 -156.1380 290° West  Level FlightAware Approximate
Sun 12:48:00 AM 62.8282 -156.3908 290° West  Level FlightAware Approximate
Sun 12:49:00 AM 62.8686 -156.6442 289° West  Level FlightAware Approximate
Sun 12:50:00 AM 62.9085 -156.8984 289° West  Level FlightAware Approximate
Sun 12:51:00 AM 62.9479 -157.1532 289° West  Level FlightAware Approximate
Sun 12:52:00 AM 62.9885 -157.4075 289° West  Level FlightAware Approximate
Sun 12:53:00 AM 63.0287 -157.6625 289° West  Level FlightAware Approximate
Sun 12:54:00 AM 63.0684 -157.9182 289° West  Level FlightAware Approximate
Sun 12:55:00 AM 63.1077 -158.1745 289° West  Level FlightAware Approximate
Sun 12:56:00 AM 63.1465 -158.4316 289° West  Level FlightAware Approximate
Sun 12:57:00 AM 63.1848 -158.6893 288° West  Level FlightAware Approximate
Sun 12:58:00 AM 63.2227 -158.9478 288° West  Level FlightAware Approximate
Sun 12:59:00 AM 63.2601 -159.2068 288° West  Level FlightAware Approximate
Sun 01:00:00 AM 63.2970 -159.4666 288° West  Level FlightAware Approximate
Sun 01:01:00 AM 63.3335 -159.7270 287° West  Level FlightAware Approximate
Sun 01:02:00 AM 63.3694 -159.9881 287° West  Level FlightAware Approximate
Sun 01:03:00 AM 63.4049 -160.2498 287° West  Level FlightAware Approximate
Sun 01:04:00 AM 63.4399 -160.5122 287° West  Level FlightAware Approximate
Sun 01:05:00 AM 63.4745 -160.7752 286° West  Level FlightAware Approximate
Sun 01:06:00 AM 63.5085 -161.0389 286° West  Level FlightAware Approximate
Sun 01:07:00 AM 63.5421 -161.3031 286° West  Level FlightAware Approximate
Sun 01:08:00 AM 63.5752 -161.5680 286° West  Level FlightAware Approximate
Sun 01:09:00 AM 63.6078 -161.8335 286° West  Level FlightAware Approximate
Sun 01:10:00 AM 63.6399 -162.0996 285° West  Level FlightAware Approximate
Sun 01:11:00 AM 63.6715 -162.3663 285° West  Level FlightAware Approximate
Sun 01:12:00 AM 63.7026 -162.6336 285° West  Level FlightAware Approximate
Sun 01:13:00 AM 63.7332 -162.9015 285° West  Level FlightAware Approximate
Sun 01:14:00 AM 63.7633 -163.1700 284° West  Level FlightAware Approximate
Sun 01:15:00 AM 63.7908 -163.4401 283° West  Level FlightAware Approximate
Sun 01:16:00 AM 63.8175 -163.7109 283° West  Level FlightAware Approximate
Sun 01:17:00 AM 63.8437 -163.9823 282° West  Level FlightAware Approximate
Sun 01:18:00 AM 63.8694 -164.2541 282° West  Level FlightAware Approximate
Sun 01:19:00 AM 63.8946 -164.5264 282° West  Level FlightAware Approximate
Sun 01:20:00 AM 63.9193 -164.7993 282° West  Level FlightAware Approximate
Sun 01:21:00 AM 63.9434 -165.0725 281° West  Level FlightAware Approximate
Sun 01:22:00 AM 63.9670 -165.3463 281° West  Level FlightAware Approximate
Sun 01:23:00 AM 63.9902 -165.6205 281° West  Level FlightAware Approximate
Sun 01:24:00 AM 64.0128 -165.8952 281° West  Level FlightAware Approximate
Sun 01:25:00 AM 64.0349 -166.1703 281° West  Level FlightAware Approximate
Sun 01:26:00 AM 64.0564 -166.4458 280° West  Level FlightAware Approximate
Sun 01:27:00 AM 64.0775 -166.7217 280° West  Level FlightAware Approximate
Sun 01:28:00 AM 64.1001 -166.9973 281° West  Level FlightAware Approximate
Sun 01:29:00 AM 64.1230 -167.2729 281° West  Level FlightAware Approximate
Sun 01:30:00 AM 64.1453 -167.5489 281° West  Level FlightAware Approximate
Sun 01:31:00 AM 64.1672 -167.8254 280° West  Level FlightAware Approximate
Sun 01:32:00 AM 64.1886 -168.1024 280° West  Level FlightAware Approximate
Sun 01:33:00 AM 64.2094 -168.3797 280° West  Level FlightAware Approximate
Sun 01:34:00 AM 64.2296 -168.6575 280° West  Level FlightAware Approximate
Sun 01:35:00 AM 64.2494 -168.9357 279° West  Level FlightAware Approximate
Sun 01:36:00 AM 64.2686 -169.2142 279° West  Level FlightAware Approximate
Sun 01:37:00 AM 64.2873 -169.4932 279° West  Level FlightAware Approximate
Sun 01:38:00 AM 64.3055 -169.7725 279° West  Level FlightAware Approximate
Sun 01:39:00 AM 64.3231 -170.0522 278° West  Level FlightAware Approximate
Sun 01:40:00 AM 64.3402 -170.3322 278° West  Level FlightAware Approximate
Sun 01:41:00 AM 64.3568 -170.6126 278° West  Level FlightAware Approximate
Sun 01:42:00 AM 64.3728 -170.8933 278° West  Level FlightAware Approximate
Sun 01:43:00 AM 64.3793 -171.1746 264° West  Level FlightAware Approximate
Sun 01:44:00 AM 64.3667 -171.4563 264° West  Level FlightAware Approximate
Sun 01:45:00 AM 64.3534 -171.7377 264° West  Level FlightAware Approximate
Sun 01:46:00 AM 64.3397 -172.0189 264° West  Level FlightAware Approximate
Sun 01:47:00 AM 64.3253 -172.2998 263° West  Level FlightAware Approximate
Sun 01:48:00 AM 64.3105 -172.5804 263° West  Level FlightAware Approximate
Sun 01:49:00 AM 64.2951 -172.8607 263° West  Level FlightAware Approximate
Sun 01:50:00 AM 64.2792 -173.1406 263° West  Level FlightAware Approximate
Sun 01:51:00 AM 64.2628 -173.4202 262° West  Level FlightAware Approximate
Sun 01:52:00 AM 64.2458 -173.6995 262° West  Level FlightAware Approximate
Sun 01:53:00 AM 64.2283 -173.9785 262° West  Level FlightAware Approximate
Sun 01:54:00 AM 64.2102 -174.2570 262° West  Level FlightAware Approximate
Sun 01:55:00 AM 64.1916 -174.5353 261° West  Level FlightAware Approximate
Sun 01:56:00 AM 64.1725 -174.8131 261° West  Level FlightAware Approximate
Sun 01:57:00 AM 64.1529 -175.0905 261° West  Level FlightAware Approximate
Sun 01:58:00 AM 64.1328 -175.3676 261° West  Level FlightAware Approximate
Sun 01:59:00 AM 64.1122 -175.6443 261° West  Level FlightAware Approximate
Sun 02:00:00 AM 64.0918 -175.9208 261° West  Level FlightAware Approximate
Sun 02:01:00 AM 64.0708 -176.1969 260° West  Level FlightAware Approximate
Sun 02:02:00 AM 64.0493 -176.4726 260° West  Level FlightAware Approximate
Sun 02:03:00 AM 64.0272 -176.7479 260° West  Level FlightAware Approximate
Sun 02:04:00 AM 64.0047 -177.0227 260° West  Level FlightAware Approximate
Sun 02:05:00 AM 63.9816 -177.2971 259° West  Level FlightAware Approximate
Sun 02:06:00 AM 63.9580 -177.5710 259° West  Level FlightAware Approximate
Sun 02:07:00 AM 63.9339 -177.8445 259° West  Level FlightAware Approximate
Sun 02:08:00 AM 63.9093 -178.1174 259° West  Level FlightAware Approximate
Sun 02:09:00 AM 63.8842 -178.3899 258° West  Level FlightAware Approximate
Sun 02:10:00 AM 63.8585 -178.6619 258° West  Level FlightAware Approximate
Sun 02:11:00 AM 63.8324 -178.9334 258° West  Level FlightAware Approximate
Sun 02:12:00 AM 63.8057 -179.2044 258° West  Level FlightAware Approximate
Sun 02:13:00 AM 63.7785 -179.4749 257° West  Level FlightAware Approximate
Sun 02:14:00 AM 63.7508 -179.7449 257° West  Level FlightAware Approximate
Sun 02:15:00 AM 63.7227 179.9857 257° West  Level FlightAware Approximate
Sun 02:16:00 AM 63.6940 179.7168 257° West  Level FlightAware Approximate
Sun 02:17:00 AM 63.6648 179.4485 256° West  Level FlightAware Approximate
Sun 02:18:00 AM 63.6351 179.1808 256° West  Level FlightAware Approximate
Sun 02:19:00 AM 63.6049 178.9135 256° West  Level FlightAware Approximate
Sun 02:20:00 AM 63.5743 178.6469 256° West  Level FlightAware Approximate
Sun 02:21:00 AM 63.5431 178.3809 255° West  Level FlightAware Approximate
Sun 02:22:00 AM 63.5115 178.1154 255° West  Level FlightAware Approximate
Sun 02:23:00 AM 63.4793 177.8505 255° West  Level FlightAware Approximate
Sun 02:24:00 AM 63.4463 177.5865 255° West  Level FlightAware Approximate
Sun 02:25:00 AM 63.4129 177.3230 254° West  Level FlightAware Approximate
Sun 02:26:00 AM 63.3790 177.0601 254° West  Level FlightAware Approximate
Sun 02:27:00 AM 63.3446 176.7979 254° West  Level FlightAware Approximate
Sun 02:28:00 AM 63.3097 176.5363 254° West  Level FlightAware Approximate
Sun 02:29:00 AM 63.2744 176.2753 253° West  Level FlightAware Approximate
Sun 02:30:00 AM 63.2386 176.0150 253° West  Level FlightAware Approximate
Sun 02:31:00 AM 63.2023 175.7553 253° West  Level FlightAware Approximate
Sun 02:32:00 AM 63.1655 175.4963 253° West  Level FlightAware Approximate
Sun 02:33:00 AM 63.1283 175.2379 252° West  Level FlightAware Approximate
Sun 02:34:00 AM 63.0905 174.9803 252° West  Level FlightAware Approximate
Sun 02:35:00 AM 63.0524 174.7232 252° West  Level FlightAware Approximate
Sun 02:36:00 AM 63.0137 174.4669 252° West  Level FlightAware Approximate
Sun 02:37:00 AM 62.9746 174.2112 251° West  Level FlightAware Approximate
Sun 02:38:00 AM 62.9350 173.9563 251° West  Level FlightAware Approximate
Sun 02:39:00 AM 62.8950 173.7020 251° West  Level FlightAware Approximate
Sun 02:40:00 AM 62.8545 173.4484 251° West  Level FlightAware Approximate
Sun 02:41:00 AM 62.8136 173.1955 251° West  Level FlightAware Approximate
Sun 02:42:00 AM 62.7722 172.9433 250° West  Level FlightAware Approximate
Sun 02:43:00 AM 62.7304 172.6919 250° West  Level FlightAware Approximate
Sun 02:44:00 AM 62.6881 172.4411 250° West  Level FlightAware Approximate
Sun 02:45:00 AM 62.6454 172.1911 250° West  Level FlightAware Approximate
Sun 02:46:00 AM 62.6022 171.9418 249° West  Level FlightAware Approximate
Sun 02:47:00 AM 62.5586 171.6932 249° West  Level FlightAware Approximate
Sun 02:48:00 AM 62.5145 171.4453 249° West  Level FlightAware Approximate
Sun 02:49:00 AM 62.4700 171.1982 249° West  Level FlightAware Approximate
Sun 02:50:00 AM 62.4251 170.9519 249° West  Level FlightAware Approximate
Sun 02:51:00 AM 62.3797 170.7062 248° West  Level FlightAware Approximate
Sun 02:52:00 AM 62.3339 170.4613 248° West  Level FlightAware Approximate
Sun 02:53:00 AM 62.2877 170.2172 248° West  Level FlightAware Approximate
Sun 02:54:00 AM 62.2410 169.9738 248° West  Level FlightAware Approximate
Sun 02:55:00 AM 62.1940 169.7312 248° West  Level FlightAware Approximate
Sun 02:56:00 AM 62.1465 169.4893 247° West  Level FlightAware Approximate
Sun 02:57:00 AM 62.0985 169.2482 247° West  Level FlightAware Approximate
Sun 02:58:00 AM 62.0502 169.0079 247° West  Level FlightAware Approximate
Sun 02:59:00 AM 62.0015 168.7683 247° West  Level FlightAware Approximate
Sun 03:00:00 AM 61.9523 168.5295 246° West  Level FlightAware Approximate
Sun 03:01:00 AM 61.9027 168.2914 246° West  Level FlightAware Approximate
Sun 03:02:00 AM 61.8527 168.0542 246° West  Level FlightAware Approximate
Sun 03:03:00 AM 61.8023 167.8177 246° West  Level FlightAware Approximate
Sun 03:04:00 AM 61.7515 167.5820 246° West  Level FlightAware Approximate
Sun 03:05:00 AM 61.7003 167.3470 245° Southwest  Level FlightAware Approximate
Sun 03:06:00 AM 61.6487 167.1129 245° Southwest  Level FlightAware Approximate
Sun 03:07:00 AM 61.5967 166.8795 245° Southwest  Level FlightAware Approximate
Sun 03:08:00 AM 61.5443 166.6469 245° Southwest  Level FlightAware Approximate
Sun 03:09:00 AM 61.4915 166.4151 245° Southwest  Level FlightAware Approximate
Sun 03:10:00 AM 61.4383 166.1841 244° Southwest  Level FlightAware Approximate
Sun 03:11:00 AM 61.3848 165.9539 244° Southwest  Level FlightAware Approximate
Sun 03:12:00 AM 61.3308 165.7245 244° Southwest  Level FlightAware Approximate
Sun 03:13:00 AM 61.2764 165.4958 244° Southwest  Level FlightAware Approximate
Sun 03:14:00 AM 61.2217 165.2680 244° Southwest  Level FlightAware Approximate
Sun 03:15:00 AM 61.1666 165.0410 243° Southwest  Level FlightAware Approximate
Sun 03:16:00 AM 61.1111 164.8147 243° Southwest  Level FlightAware Approximate
Sun 03:17:00 AM 61.0552 164.5892 243° Southwest  Level FlightAware Approximate
Sun 03:18:00 AM 60.9990 164.3646 243° Southwest  Level FlightAware Approximate
Sun 03:19:00 AM 60.9424 164.1407 243° Southwest  Level FlightAware Approximate
Sun 03:20:00 AM 60.8854 163.9176 242° Southwest  Level FlightAware Approximate
Sun 03:21:00 AM 60.8280 163.6954 242° Southwest  Level FlightAware Approximate
Sun 03:22:00 AM 60.7703 163.4739 242° Southwest  Level FlightAware Approximate
Sun 03:23:00 AM 60.7122 163.2532 242° Southwest  Level FlightAware Approximate
Sun 03:24:00 AM 60.6538 163.0334 242° Southwest  Level FlightAware Approximate
Sun 03:25:00 AM 60.5950 162.8143 241° Southwest  Level FlightAware Approximate
Sun 03:26:00 AM 60.5358 162.5960 241° Southwest  Level FlightAware Approximate
Sun 03:27:00 AM 60.4763 162.3785 241° Southwest  Level FlightAware Approximate
Sun 03:28:00 AM 60.4164 162.1618 241° Southwest  Level FlightAware Approximate
Sun 03:29:00 AM 60.3562 161.9460 241° Southwest  Level FlightAware Approximate
Sun 03:30:00 AM 60.2957 161.7309 240° Southwest  Level FlightAware Approximate
Sun 03:31:00 AM 60.2347 161.5166 240° Southwest  Level FlightAware Approximate
Sun 03:32:00 AM 60.1735 161.3031 240° Southwest  Level FlightAware Approximate
Sun 03:33:00 AM 60.1119 161.0904 240° Southwest  Level FlightAware Approximate
Sun 03:34:00 AM 60.0499 160.8785 240° Southwest  Level FlightAware Approximate
Sun 03:35:00 AM 59.9877 160.6674 240° Southwest  Level FlightAware Approximate
Sun 03:36:00 AM 59.9251 160.4571 239° Southwest  Level FlightAware Approximate
Sun 03:37:00 AM 59.8621 160.2476 239° Southwest  Level FlightAware Approximate
Sun 03:38:00 AM 59.7988 160.0389 239° Southwest  Level FlightAware Approximate
Sun 03:39:00 AM 59.7352 159.8310 239° Southwest  Level FlightAware Approximate
Sun 03:40:00 AM 59.6713 159.6238 239° Southwest  Level FlightAware Approximate
Sun 03:41:00 AM 59.6070 159.4175 238° Southwest  Level FlightAware Approximate
Sun 03:42:00 AM 59.5425 159.2119 238° Southwest  Level FlightAware Approximate
Sun 03:43:00 AM 59.4776 159.0072 238° Southwest  Level FlightAware Approximate
Sun 03:44:00 AM 59.4123 158.8032 238° Southwest  Level FlightAware Approximate
Sun 03:45:00 AM 59.3468 158.6000 238° Southwest  Level FlightAware Approximate
Sun 03:46:00 AM 59.2809 158.3976 238° Southwest  Level FlightAware Approximate
Sun 03:47:00 AM 59.2148 158.1960 237° Southwest  Level FlightAware Approximate
Sun 03:48:00 AM 59.1483 157.9952 237° Southwest  Level FlightAware Approximate
Sun 03:49:00 AM 59.0815 157.7951 237° Southwest  Level FlightAware Approximate
Sun 03:50:00 AM 59.0144 157.5958 237° Southwest  Level FlightAware Approximate
Sun 03:51:00 AM 58.9470 157.3973 237° Southwest  Level FlightAware Approximate
Sun 03:52:00 AM 58.8793 157.1996 237° Southwest  Level FlightAware Approximate
Sun 03:53:00 AM 58.8113 157.0026 236° Southwest  Level FlightAware Approximate
Sun 03:54:00 AM 58.7430 156.8065 236° Southwest  Level FlightAware Approximate
Sun 03:55:00 AM 58.6744 156.6111 236° Southwest  Level FlightAware Approximate
Sun 03:56:00 AM 58.6055 156.4164 236° Southwest  Level FlightAware Approximate
Sun 03:57:00 AM 58.5364 156.2225 236° Southwest  Level FlightAware Approximate
Sun 03:58:00 AM 58.4669 156.0294 236° Southwest  Level FlightAware Approximate
Sun 03:59:00 AM 58.3971 155.8371 235° Southwest  Level FlightAware Approximate
Sun 04:00:00 AM 58.3271 155.6455 235° Southwest  Level FlightAware Approximate
Sun 04:01:00 AM 58.2567 155.4547 235° Southwest  Level FlightAware Approximate
Sun 04:02:00 AM 58.1861 155.2646 235° Southwest  Level FlightAware Approximate
Sun 04:03:00 AM 58.1152 155.0753 235° Southwest  Level FlightAware Approximate
Sun 04:04:00 AM 58.0440 154.8867 235° Southwest  Level FlightAware Approximate
Sun 04:05:00 AM 57.9726 154.6989 234° Southwest  Level FlightAware Approximate
Sun 04:06:00 AM 57.9008 154.5119 234° Southwest  Level FlightAware Approximate
Sun 04:07:00 AM 57.8288 154.3255 234° Southwest  Level FlightAware Approximate
Sun 04:08:00 AM 57.7566 154.1400 234° Southwest  Level FlightAware Approximate
Sun 04:09:00 AM 57.6840 153.9552 234° Southwest  Level FlightAware Approximate
Sun 04:10:00 AM 57.6112 153.7711 234° Southwest  Level FlightAware Approximate
Sun 04:11:00 AM 57.5381 153.5877 233° Southwest  Level FlightAware Approximate
Sun 04:12:00 AM 57.4648 153.4051 233° Southwest  Level FlightAware Approximate
Sun 04:13:00 AM 57.3912 153.2232 233° Southwest  Level FlightAware Approximate
Sun 04:14:00 AM 57.3173 153.0421 233° Southwest  Level FlightAware Approximate
Sun 04:15:00 AM 57.2432 152.8617 233° Southwest  Level FlightAware Approximate
Sun 04:16:00 AM 57.1688 152.6820 233° Southwest  Level FlightAware Approximate
Sun 04:17:00 AM 57.0941 152.5030 233° Southwest  Level FlightAware Approximate
Sun 04:18:00 AM 57.0192 152.3247 232° Southwest  Level FlightAware Approximate
Sun 04:19:00 AM 56.9441 152.1472 232° Southwest  Level FlightAware Approximate
Sun 04:20:00 AM 56.8687 151.9704 232° Southwest  Level FlightAware Approximate
Sun 04:21:00 AM 56.7930 151.7943 232° Southwest  Level FlightAware Approximate
Sun 04:22:00 AM 56.7171 151.6189 232° Southwest  Level FlightAware Approximate
Sun 04:23:00 AM 56.6410 151.4442 232° Southwest  Level FlightAware Approximate
Sun 04:24:00 AM 56.5646 151.2702 231° Southwest  Level FlightAware Approximate
Sun 04:25:00 AM 56.4880 151.0969 231° Southwest  Level FlightAware Approximate
Sun 04:26:00 AM 56.4111 150.9243 231° Southwest  Level FlightAware Approximate
Sun 04:27:00 AM 56.3340 150.7525 231° Southwest  Level FlightAware Approximate
Sun 04:28:00 AM 56.2567 150.5813 231° Southwest  Level FlightAware Approximate
Sun 04:29:00 AM 56.1791 150.4108 231° Southwest  Level FlightAware Approximate
Sun 04:30:00 AM 56.1013 150.2410 231° Southwest  Level FlightAware Approximate
Sun 04:31:00 AM 56.0232 150.0718 230° Southwest  Level FlightAware Approximate
Sun 04:32:00 AM 55.9450 149.9034 230° Southwest  Level FlightAware Approximate
Sun 04:33:00 AM 55.8665 149.7356 230° Southwest  Level FlightAware Approximate
Sun 04:34:00 AM 55.7878 149.5685 230° Southwest  Level FlightAware Approximate
Sun 04:35:00 AM 55.7088 149.4021 230° Southwest  Level FlightAware Approximate
Sun 04:36:00 AM 55.6296 149.2363 230° Southwest  Level FlightAware Approximate
Sun 04:37:00 AM 55.5503 149.0712 230° Southwest  Level FlightAware Approximate
Sun 04:38:00 AM 55.4706 148.9068 230° Southwest  Level FlightAware Approximate
Sun 04:39:00 AM 55.3908 148.7430 229° Southwest  Level FlightAware Approximate
Sun 04:40:00 AM 55.3108 148.5799 229° Southwest  Level FlightAware Approximate
Sun 04:41:00 AM 55.2305 148.4175 229° Southwest  Level FlightAware Approximate
Sun 04:42:00 AM 55.1500 148.2557 229° Southwest  Level FlightAware Approximate
Sun 04:43:00 AM 55.0693 148.0945 229° Southwest  Level FlightAware Approximate
Sun 04:44:00 AM 54.9884 147.9341 229° Southwest  Level FlightAware Approximate
Sun 04:45:00 AM 54.9073 147.7742 229° Southwest  Level FlightAware Approximate
Sun 04:46:00 AM 54.8260 147.6150 228° Southwest  Level FlightAware Approximate
Sun 04:47:00 AM 54.7445 147.4565 228° Southwest  Level FlightAware Approximate
Sun 04:48:00 AM 54.6627 147.2986 228° Southwest  Level FlightAware Approximate
Sun 04:49:00 AM 54.5808 147.1413 228° Southwest  Level FlightAware Approximate
Sun 04:50:00 AM 54.4987 146.9846 228° Southwest  Level FlightAware Approximate
Sun 04:51:00 AM 54.4163 146.8286 228° Southwest  Level FlightAware Approximate
Sun 04:52:00 AM 54.3338 146.6732 228° Southwest  Level FlightAware Approximate
Sun 04:53:00 AM 54.2510 146.5184 228° Southwest  Level FlightAware Approximate
Sun 04:54:00 AM 54.1681 146.3643 227° Southwest  Level FlightAware Approximate
Sun 04:55:00 AM 54.0851 146.2105 227° Southwest  Level FlightAware Approximate
Sun 04:56:00 AM 54.0020 146.0572 227° Southwest  Level FlightAware Approximate
Sun 04:57:00 AM 53.9188 145.9045 227° Southwest  Level FlightAware Approximate
Sun 04:58:00 AM 53.8353 145.7523 227° Southwest  Level FlightAware Approximate
Sun 04:59:00 AM 53.7517 145.6008 227° Southwest  Level FlightAware Approximate
Sun 05:00:00 AM 53.6678 145.4499 227° Southwest  Level FlightAware Approximate
Sun 05:01:00 AM 53.5838 145.2996 227° Southwest  Level FlightAware Approximate
Sun 05:02:00 AM 53.4996 145.1499 227° Southwest  Level FlightAware Approximate
Sun 05:03:00 AM 53.4152 145.0008 227° Southwest  Level FlightAware Approximate
Sun 05:04:00 AM 53.3306 144.8523 226° Southwest  Level FlightAware Approximate
Sun 05:05:00 AM 53.2459 144.7043 226° Southwest  Level FlightAware Approximate
Sun 05:06:00 AM 53.1609 144.5570 226° Southwest  Level FlightAware Approximate
Sun 05:07:00 AM 53.0758 144.4102 226° Southwest  Level FlightAware Approximate
Sun 05:08:00 AM 52.9905 144.2640 226° Southwest  Level FlightAware Approximate
Sun 05:09:00 AM 52.9050 144.1184 226° Southwest  Level FlightAware Approximate
Sun 05:10:00 AM 52.8193 143.9734 226° Southwest  Level FlightAware Approximate
Sun 05:11:00 AM 52.7335 143.8289 226° Southwest  Level FlightAware Approximate
Sun 05:12:00 AM 52.6474 143.6850 225° Southwest  Level FlightAware Approximate
Sun 05:13:00 AM 52.5613 143.5417 225° Southwest  Level FlightAware Approximate
Sun 05:14:00 AM 52.4749 143.3989 225° Southwest  Level FlightAware Approximate
Sun 05:15:00 AM 52.3884 143.2567 225° Southwest  Level FlightAware Approximate
Sun 05:16:00 AM 52.3017 143.1150 225° Southwest  Level FlightAware Approximate
Sun 05:17:00 AM 52.2148 142.9739 225° Southwest  Level FlightAware Approximate
Sun 05:18:00 AM 52.1275 142.8338 225° Southwest  Level FlightAware Approximate
Sun 05:19:00 AM 52.0399 142.6944 224° Southwest  Level FlightAware Approximate
Sun 05:20:00 AM 51.9522 142.5555 224° Southwest  Level FlightAware Approximate
Sun 05:21:00 AM 51.8643 142.4172 224° Southwest  Level FlightAware Approximate
Sun 05:22:00 AM 51.7763 142.2794 224° Southwest  Level FlightAware Approximate
Sun 05:23:00 AM 51.6881 142.1421 224° Southwest  Level FlightAware Approximate
Sun 05:24:00 AM 51.5997 142.0054 224° Southwest  Level FlightAware Approximate
Sun 05:25:00 AM 51.5112 141.8692 224° Southwest  Level FlightAware Approximate
Sun 05:26:00 AM 51.4225 141.7335 224° Southwest  Level FlightAware Approximate
Sun 05:27:00 AM 51.3337 141.5984 224° Southwest  Level FlightAware Approximate
Sun 05:28:00 AM 51.2447 141.4638 223° Southwest  Level FlightAware Approximate
Sun 05:29:00 AM 51.1556 141.3297 223° Southwest  Level FlightAware Approximate
Sun 05:30:00 AM 51.0663 141.1961 223° Southwest  Level FlightAware Approximate
Sun 05:31:00 AM 50.9768 141.0630 223° Southwest  Level FlightAware Approximate
Sun 05:32:00 AM 50.8872 140.9305 223° Southwest  Level FlightAware Approximate
Sun 05:33:00 AM 50.7975 140.7984 223° Southwest  Level FlightAware Approximate
Sun 05:34:00 AM 50.7076 140.6669 223° Southwest  Level FlightAware Approximate
Sun 05:35:00 AM 50.6176 140.5358 223° Southwest  Level FlightAware Approximate
Sun 05:36:00 AM 50.5274 140.4053 223° Southwest  Level FlightAware Approximate
Sun 05:37:00 AM 50.4370 140.2753 223° Southwest  Level FlightAware Approximate
Sun 05:38:00 AM 50.3466 140.1457 222° Southwest  Level FlightAware Approximate
Sun 05:39:00 AM 50.2560 140.0167 222° Southwest  Level FlightAware Approximate
Sun 05:40:00 AM 50.1652 139.8881 222° Southwest  Level FlightAware Approximate
Sun 05:41:00 AM 50.0743 139.7601 222° Southwest  Level FlightAware Approximate
Sun 05:42:00 AM 49.9832 139.6325 222° Southwest  Level FlightAware Approximate
Sun 05:43:00 AM 49.8921 139.5054 222° Southwest  Level FlightAware Approximate
Sun 05:44:00 AM 49.8008 139.3788 222° Southwest  Level FlightAware Approximate
Sun 05:45:00 AM 49.7093 139.2526 222° Southwest  Level FlightAware Approximate
Sun 05:46:00 AM 49.6177 139.1269 222° Southwest  Level FlightAware Approximate
Sun 05:47:00 AM 49.5260 139.0017 222° Southwest  Level FlightAware Approximate
Sun 05:48:00 AM 49.4341 138.8770 221° Southwest  Level FlightAware Approximate
Sun 05:49:00 AM 49.3421 138.7527 221° Southwest  Level FlightAware Approximate
Sun 05:50:00 AM 49.2500 138.6289 221° Southwest  Level FlightAware Approximate
Sun 05:51:00 AM 49.1577 138.5056 221° Southwest  Level FlightAware Approximate
Sun 05:52:00 AM 49.0653 138.3827 221° Southwest  Level FlightAware Approximate
Sun 05:53:00 AM 48.9728 138.2603 221° Southwest  Level FlightAware Approximate
Sun 05:54:00 AM 48.8801 138.1383 221° Southwest  Level FlightAware Approximate
Sun 05:55:00 AM 48.7873 138.0170 220° Southwest  Level FlightAware Approximate
Sun 05:56:00 AM 48.6935 137.8974 220° Southwest  Level FlightAware Approximate
Sun 05:57:00 AM 48.5997 137.7783 220° Southwest  Level FlightAware Approximate
Sun 05:58:00 AM 48.5057 137.6596 220° Southwest  Level FlightAware Approximate
Sun 05:59:00 AM 48.4116 137.5413 220° Southwest  Level FlightAware Approximate
Sun 06:00:00 AM 48.3174 137.4235 220° Southwest  Level FlightAware Approximate
Sun 06:01:00 AM 48.2230 137.3061 220° Southwest  Level FlightAware Approximate
Sun 06:02:00 AM 48.1286 137.1891 220° Southwest  Level FlightAware Approximate
Sun 06:03:00 AM 48.0344 137.0718 220° Southwest  Level FlightAware Approximate
Sun 06:04:00 AM 47.9406 136.9541 220° Southwest  Level FlightAware Approximate
Sun 06:05:00 AM 47.8466 136.8369 220° Southwest  Level FlightAware Approximate
Sun 06:06:00 AM 47.7526 136.7201 220° Southwest  Level FlightAware Approximate
Sun 06:07:00 AM 47.6584 136.6037 220° Southwest  Level FlightAware Approximate
Sun 06:08:00 AM 47.5640 136.4877 220° Southwest  Level FlightAware Approximate
Sun 06:09:00 AM 47.4696 136.3722 220° Southwest  Level FlightAware Approximate
Sun 06:10:00 AM 47.3751 136.2571 220° Southwest  Level FlightAware Approximate
Sun 06:11:00 AM 47.2804 136.1423 219° Southwest  Level FlightAware Approximate
Sun 06:12:00 AM 47.1856 136.0280 219° Southwest  Level FlightAware Approximate
Sun 06:13:00 AM 47.0908 135.9141 219° Southwest  Level FlightAware Approximate
Sun 06:14:00 AM 46.9958 135.8006 219° Southwest  Level FlightAware Approximate
Sun 06:15:00 AM 46.9007 135.6875 219° Southwest  Level FlightAware Approximate
Sun 06:16:00 AM 46.8054 135.5748 219° Southwest  Level FlightAware Approximate
Sun 06:17:00 AM 46.7101 135.4626 219° Southwest  Level FlightAware Approximate
Sun 06:18:00 AM 46.6147 135.3507 219° Southwest  Level FlightAware Approximate
Sun 06:19:00 AM 46.5191 135.2392 219° Southwest  Level FlightAware Approximate
Sun 06:20:00 AM 46.4235 135.1280 219° Southwest  Level FlightAware Approximate
Sun 06:21:00 AM 46.3277 135.0173 219° Southwest  Level FlightAware Approximate
Sun 06:22:00 AM 46.2318 134.9070 219° Southwest  Level FlightAware Approximate
Sun 06:23:00 AM 46.1358 134.7970 218° Southwest  Level FlightAware Approximate
Sun 06:24:00 AM 46.0398 134.6875 218° Southwest  Level FlightAware Approximate
Sun 06:25:00 AM 45.9436 134.5783 218° Southwest  Level FlightAware Approximate
Sun 06:26:00 AM 45.8478 134.4686 219° Southwest  Level FlightAware Approximate
Sun 06:27:00 AM 45.7519 134.3592 219° Southwest  Level FlightAware Approximate
Sun 06:28:00 AM 45.6559 134.2502 218° Southwest  Level FlightAware Approximate
Sun 06:29:00 AM 45.5599 134.1415 218° Southwest  Level FlightAware Approximate
Sun 06:30:00 AM 45.4637 134.0332 218° Southwest  Level FlightAware Approximate
Sun 06:31:00 AM 45.3675 133.9253 218° Southwest  Level FlightAware Approximate
Sun 06:32:00 AM 45.2711 133.8177 218° Southwest  Level FlightAware Approximate
Sun 06:33:00 AM 45.1749 133.7101 218° Southwest  Level FlightAware Approximate
Sun 06:34:00 AM 45.0785 133.6029 218° Southwest  Level FlightAware Approximate
Sun 06:35:00 AM 44.9821 133.4961 218° Southwest  Level FlightAware Approximate
Sun 06:36:00 AM 44.8855 133.3896 218° Southwest  Level FlightAware Approximate
Sun 06:37:00 AM 44.7888 133.2835 218° Southwest  Level FlightAware Approximate
Sun 06:38:00 AM 44.6921 133.1777 218° Southwest  Level FlightAware Approximate
Sun 06:39:00 AM 44.5946 133.0733 217° Southwest  Level FlightAware Approximate
Sun 06:40:00 AM 44.4969 132.9697 217° Southwest  Level FlightAware Approximate
Sun 06:41:00 AM 44.3991 132.8664 217° Southwest  Level FlightAware Approximate
Sun 06:42:00 AM 44.3012 132.7634 217° Southwest  Level FlightAware Approximate
Sun 06:43:00 AM 44.2032 132.6608 217° Southwest  Level FlightAware Approximate
Sun 06:44:00 AM 44.1051 132.5585 217° Southwest  Level FlightAware Approximate
Sun 06:45:00 AM 44.0069 132.4566 217° Southwest  Level FlightAware Approximate
Sun 06:46:00 AM 43.9086 132.3550 217° Southwest  Level FlightAware Approximate
Sun 06:47:00 AM 43.8103 132.2538 217° Southwest  Level FlightAware Approximate
Sun 06:48:00 AM 43.7118 132.1528 217° Southwest  Level FlightAware Approximate
Sun 06:49:00 AM 43.6133 132.0523 216° Southwest  Level FlightAware Approximate
Sun 06:50:00 AM 43.5146 131.9520 216° Southwest  Level FlightAware Approximate
Sun 06:51:00 AM 43.4159 131.8521 216° Southwest  Level FlightAware Approximate
Sun 06:52:00 AM 43.3171 131.7525 216° Southwest  Level FlightAware Approximate
Sun 06:53:00 AM 43.2182 131.6532 216° Southwest  Level FlightAware Approximate
Sun 06:54:00 AM 43.1192 131.5542 216° Southwest  Level FlightAware Approximate
Sun 06:55:00 AM 43.0202 131.4556 216° Southwest  Level FlightAware Approximate
Sun 06:56:00 AM 42.9210 131.3572 216° Southwest  Level FlightAware Approximate
Sun 06:57:00 AM 42.8218 131.2592 216° Southwest  Level FlightAware Approximate
Sun 06:58:00 AM 42.7225 131.1615 216° Southwest  Level FlightAware Approximate
Sun 06:59:00 AM 42.6231 131.0641 216° Southwest  Level FlightAware Approximate
Sun 07:00:00 AM 42.5236 130.9671 216° Southwest  Level FlightAware Approximate
Sun 07:01:00 AM 42.4241 130.8703 216° Southwest  Level FlightAware Approximate
Sun 07:02:00 AM 42.3244 130.7738 216° Southwest  Level FlightAware Approximate
Sun 07:03:00 AM 42.2247 130.6777 216° Southwest  Level FlightAware Approximate
Sun 07:04:00 AM 42.1249 130.5818 215° Southwest  Level FlightAware Approximate
Sun 07:05:00 AM 42.0250 130.4863 215° Southwest  Level FlightAware Approximate
Sun 07:06:00 AM 41.9250 130.3910 215° Southwest  Level FlightAware Approximate
Sun 07:07:00 AM 41.8250 130.2961 215° Southwest  Level FlightAware Approximate
Sun 07:08:00 AM 41.7249 130.2014 215° Southwest  Level FlightAware Approximate
Sun 07:09:00 AM 41.6247 130.1071 215° Southwest  Level FlightAware Approximate
Sun 07:10:00 AM 41.5244 130.0130 215° Southwest  Level FlightAware Approximate
Sun 07:11:00 AM 41.4241 129.9192 215° Southwest  Level FlightAware Approximate
Sun 07:12:00 AM 41.3237 129.8257 215° Southwest  Level FlightAware Approximate
Sun 07:13:00 AM 41.2232 129.7325 215° Southwest  Level FlightAware Approximate
Sun 07:14:00 AM 41.1226 129.6396 215° Southwest  Level FlightAware Approximate
Sun 07:15:00 AM 41.0219 129.5470 215° Southwest  Level FlightAware Approximate
Sun 07:16:00 AM 40.9212 129.4547 215° Southwest  Level FlightAware Approximate
Sun 07:17:00 AM 40.8204 129.3626 215° Southwest  Level FlightAware Approximate
Sun 07:18:00 AM 40.7196 129.2708 215° Southwest  Level FlightAware Approximate
Sun 07:19:00 AM 40.6188 129.1790 215° Southwest  Level FlightAware Approximate
Sun 07:20:00 AM 40.5178 129.0876 215° Southwest  Level FlightAware Approximate
Sun 07:21:00 AM 40.4169 128.9964 215° Southwest  Level FlightAware Approximate
Sun 07:22:00 AM 40.3158 128.9055 214° Southwest  Level FlightAware Approximate
Sun 07:23:00 AM 40.2147 128.8149 214° Southwest  Level FlightAware Approximate
Sun 07:24:00 AM 40.1136 128.7245 214° Southwest  Level FlightAware Approximate
Sun 07:25:00 AM 40.0123 128.6344 214° Southwest  Level FlightAware Approximate
Sun 07:26:00 AM 39.9110 128.5446 214° Southwest  Level FlightAware Approximate
Sun 07:27:00 AM 39.8096 128.4550 214° Southwest  Level FlightAware Approximate
Sun 07:28:00 AM 39.7081 128.3657 214° Southwest  Level FlightAware Approximate
Sun 07:29:00 AM 39.6066 128.2767 214° Southwest  Level FlightAware Approximate
Sun 07:30:00 AM 39.5050 128.1879 214° Southwest  Level FlightAware Approximate
Sun 07:31:00 AM 39.4034 128.0994 214° Southwest  Level FlightAware Approximate
Sun 07:32:00 AM 39.3016 128.0111 214° Southwest  Level FlightAware Approximate
Sun 07:33:00 AM 39.1998 127.9231 214° Southwest  Level FlightAware Approximate
Sun 07:34:00 AM 39.0980 127.8354 214° Southwest  Level FlightAware Approximate
Sun 07:35:00 AM 38.9961 127.7478 214° Southwest  Level FlightAware Approximate
Sun 07:36:00 AM 38.8941 127.6606 214° Southwest  Level FlightAware Approximate
Sun 07:37:00 AM 38.7920 127.5736 214° Southwest  Level FlightAware Approximate
Sun 07:38:00 AM 38.6899 127.4869 214° Southwest  Level FlightAware Approximate
Sun 07:39:00 AM 38.5877 127.4004 213° Southwest  Level FlightAware Approximate
Sun 07:40:00 AM 38.4855 127.3141 213° Southwest  Level FlightAware Approximate
Sun 07:41:00 AM 38.3832 127.2281 213° Southwest  Level FlightAware Approximate
Sun 07:42:00 AM 38.2808 127.1423 213° Southwest  Level FlightAware Approximate
Sun 07:43:00 AM 38.1783 127.0568 213° Southwest  Level FlightAware Approximate
Sun 07:44:00 AM 38.0759 126.9715 213° Southwest  Level FlightAware Approximate
Sun 07:45:00 AM 37.9733 126.8865 213° Southwest  Level FlightAware Approximate
Sun 07:46:00 AM 37.8707 126.8017 213° Southwest  Level FlightAware Approximate
Sun 07:47:00 AM 37.7680 126.7171 213° Southwest  Level FlightAware Approximate
Sun 07:48:00 AM 37.6653 126.6328 213° Southwest  Level FlightAware Approximate
Sun 07:49:00 AM 37.5625 126.5487 213° Southwest  Level FlightAware Approximate
Sun 07:50:00 AM 37.4596 126.4648 213° Southwest  Level FlightAware Approximate
Sun 07:51:00 AM 37.3567 126.3812 213° Southwest  Level FlightAware Approximate
Sun 07:52:00 AM 37.2537 126.2978 213° Southwest  Level FlightAware Approximate
Sun 07:53:00 AM 37.1507 126.2146 213° Southwest  Level FlightAware Approximate
Sun 07:54:00 AM 37.0476 126.1316 213° Southwest  Level FlightAware Approximate
Sun 07:55:00 AM 36.9444 126.0489 213° Southwest  Level FlightAware Approximate
Sun 07:56:00 AM 36.8412 125.9663 213° Southwest  Level FlightAware Approximate
Sun 07:57:00 AM 36.7380 125.8840 213° Southwest  Level FlightAware Approximate
Sun 07:58:00 AM 36.6347 125.8019 213° Southwest  Level FlightAware Approximate
Sun 07:59:00 AM 36.5313 125.7201 212° Southwest  Level FlightAware Approximate
Sun 08:00:00 AM 36.4279 125.6384 212° Southwest  Level FlightAware Approximate
Sun 08:01:00 AM 36.3244 125.5570 212° Southwest  Level FlightAware Approximate
Sun 08:02:00 AM 36.2209 125.4758 212° Southwest  Level FlightAware Approximate
Sun 08:03:00 AM 36.1173 125.3948 212° Southwest  Level FlightAware Approximate
Sun 08:04:00 AM 36.0136 125.3139 212° Southwest  Level FlightAware Approximate
Sun 08:05:00 AM 35.9100 125.2334 212° Southwest  Level FlightAware Approximate
Sun 08:06:00 AM 35.8062 125.1530 212° Southwest  Level FlightAware Approximate
Sun 08:07:00 AM 35.7024 125.0728 212° Southwest  Level FlightAware Approximate
Sun 08:08:00 AM 35.5986 124.9929 212° Southwest  Level FlightAware Approximate
Sun 08:09:00 AM 35.4947 124.9131 212° Southwest  Level FlightAware Approximate
Sun 08:10:00 AM 35.3907 124.8336 212° Southwest  Level FlightAware Approximate
Sun 08:11:00 AM 35.2867 124.7543 212° Southwest  Level FlightAware Approximate
Sun 08:12:00 AM 35.1826 124.6751 212° Southwest  Level FlightAware Approximate
Sun 08:13:00 AM 35.0785 124.5962 212° Southwest  Level FlightAware Approximate
Sun 08:14:00 AM 34.9743 124.5175 212° Southwest  Level FlightAware Approximate
Sun 08:15:00 AM 34.8701 124.4390 212° Southwest  Level FlightAware Approximate
Sun 08:16:00 AM 34.7659 124.3606 212° Southwest  Level FlightAware Approximate
Sun 08:17:00 AM 34.6615 124.2825 212° Southwest  Level FlightAware Approximate
Sun 08:18:00 AM 34.5572 124.2046 212° Southwest  Level FlightAware Approximate
Sun 08:19:00 AM 34.4528 124.1268 212° Southwest  Level FlightAware Approximate
Sun 08:20:00 AM 34.3482 124.0496 211° Southwest  Level FlightAware Approximate
Sun 08:21:00 AM 34.2434 123.9727 211° Southwest  Level FlightAware Approximate
Sun 08:22:00 AM 34.1386 123.8960 211° Southwest  Level FlightAware Approximate
Sun 08:23:00 AM 34.0338 123.8195 211° Southwest  Level FlightAware Approximate
Sun 08:24:00 AM 33.9289 123.7431 211° Southwest  Level FlightAware Approximate
Sun 08:25:00 AM 33.8240 123.6670 211° Southwest  Level FlightAware Approximate
Sun 08:26:00 AM 33.7190 123.5910 211° Southwest  Level FlightAware Approximate
Sun 08:27:00 AM 33.6140 123.5153 211° Southwest  Level FlightAware Approximate
Sun 08:28:00 AM 33.5089 123.4397 211° Southwest  Level FlightAware Approximate
Sun 08:29:00 AM 33.4038 123.3643 211° Southwest  Level FlightAware Approximate
Sun 08:30:00 AM 33.2987 123.2890 211° Southwest  Level FlightAware Approximate
Sun 08:31:00 AM 33.1935 123.2140 211° Southwest  Level FlightAware Approximate
Sun 08:32:00 AM 33.0882 123.1391 211° Southwest  Level FlightAware Approximate
Sun 08:33:00 AM 32.9829 123.0645 211° Southwest  Level FlightAware Approximate
Sun 08:34:00 AM 32.8776 122.9900 211° Southwest  Level FlightAware Approximate
Sun 08:35:00 AM 32.7722 122.9156 211° Southwest  Level FlightAware Approximate
Sun 08:36:00 AM 32.6663 122.8425 211° Southwest  Level FlightAware Approximate
Sun 08:37:00 AM 32.5613 122.7675 211° Southwest  Level FlightAware Approximate
Sun 08:38:00 AM 32.4564 122.6925 212° Southwest  Level FlightAware Approximate
Sun 08:39:00 AM 32.3520 122.6166 212° Southwest  Level FlightAware Approximate
Sun 08:40:00 AM 32.2465 122.5432 208° Southwest  Level FlightAware Approximate
Sun 08:41:00 AM 32.1386 122.4745 208° Southwest  Level FlightAware Approximate
Sun 08:42:00 AM 32.0337 122.4001 213° Southwest  Level FlightAware Approximate
Sun 08:43:00 AM 31.9303 122.3226 212° Southwest  Level FlightAware Approximate
Sun 08:44:00 AM 31.8267 122.2456 210° Southwest  Level FlightAware Approximate
Sun 08:45:00 AM 31.7202 122.1745 210° Southwest  Level FlightAware Approximate
Sun 08:46:00 AM 31.6129 122.1051 208° Southwest  Level FlightAware Approximate
Sun 08:47:00 AM 31.5052 122.0366 208° Southwest  Level FlightAware Approximate
Sun 08:48:00 AM 31.3986 121.9657 210° Southwest  Level FlightAware Approximate
Sun 08:49:00 AM 31.2940 121.8913 213° Southwest  Level FlightAware Approximate

Login

Don't have an account? Register now (free) for customized features, flight alerts, and more!